<?xml version="1.0" encoding="UTF-8" standalone="no" ?>
<gpx xmlns="http://www.topografix.com/GPX/1/1" xmlns:xsi="http://www.w3.org/2001/XMLSchema-instance" xsi:schemaLocation="http://www.topografix.com/GPX/1/1 http://www.topografix.com/GPX/1/1/gpx.xsd" version="1.1" creator="VisuGPX - https://www.visugpx.com">
  <metadata>
    <name>Devoluy sur 3 jours</name>
    <desc><![CDATA[En prévision sur 3 jours au printemps en évitant les passages enneigés]]></desc>
  </metadata>
  <trk>
    <name><![CDATA[10052205-Devoluy sur 3 jours]]></name>
    <trkseg>
      <trkpt lat="44.73456" lon="5.89494">
        <ele>1039</ele>
        <time>2019-06-03T19:22:07Z</time>
      </trkpt>
      <trkpt lat="44.73391" lon="5.89402">
        <ele>1068</ele>
        <time>2019-06-03T19:23:21Z</time>
      </trkpt>
      <trkpt lat="44.73404" lon="5.89344">
        <ele>1078</ele>
        <time>2019-06-03T19:23:55Z</time>
      </trkpt>
      <trkpt lat="44.73464" lon="5.89271">
        <ele>1082</ele>
        <time>2019-06-03T19:24:59Z</time>
      </trkpt>
      <trkpt lat="44.73473" lon="5.89189">
        <ele>1099</ele>
        <time>2019-06-03T19:25:46Z</time>
      </trkpt>
      <trkpt lat="44.7343" lon="5.89186">
        <ele>1112</ele>
        <time>2019-06-03T19:26:21Z</time>
      </trkpt>
      <trkpt lat="44.73462" lon="5.89019">
        <ele>1138</ele>
        <time>2019-06-03T19:27:59Z</time>
      </trkpt>
      <trkpt lat="44.7352" lon="5.88956">
        <ele>1140</ele>
        <time>2019-06-03T19:28:58Z</time>
      </trkpt>
      <trkpt lat="44.7352" lon="5.88925">
        <ele>1146</ele>
        <time>2019-06-03T19:29:15Z</time>
      </trkpt>
      <trkpt lat="44.73553" lon="5.88865">
        <ele>1152</ele>
        <time>2019-06-03T19:29:58Z</time>
      </trkpt>
      <trkpt lat="44.73566" lon="5.88774">
        <ele>1164</ele>
        <time>2019-06-03T19:30:51Z</time>
      </trkpt>
      <trkpt lat="44.73557" lon="5.88734">
        <ele>1172</ele>
        <time>2019-06-03T19:31:15Z</time>
      </trkpt>
      <trkpt lat="44.73507" lon="5.88592">
        <ele>1202</ele>
        <time>2019-06-03T19:32:45Z</time>
      </trkpt>
      <trkpt lat="44.73531" lon="5.88528">
        <ele>1206</ele>
        <time>2019-06-03T19:33:26Z</time>
      </trkpt>
      <trkpt lat="44.73596" lon="5.88525">
        <ele>1201</ele>
        <time>2019-06-03T19:34:18Z</time>
      </trkpt>
      <trkpt lat="44.7366" lon="5.88413">
        <ele>1226</ele>
        <time>2019-06-03T19:35:40Z</time>
      </trkpt>
      <trkpt lat="44.73699" lon="5.88264">
        <ele>1254</ele>
        <time>2019-06-03T19:37:10Z</time>
      </trkpt>
      <trkpt lat="44.73669" lon="5.88224">
        <ele>1260</ele>
        <time>2019-06-03T19:37:44Z</time>
      </trkpt>
      <trkpt lat="44.7365" lon="5.88167">
        <ele>1269</ele>
        <time>2019-06-03T19:38:19Z</time>
      </trkpt>
      <trkpt lat="44.73684" lon="5.88115">
        <ele>1277</ele>
        <time>2019-06-03T19:39:00Z</time>
      </trkpt>
      <trkpt lat="44.73749" lon="5.88024">
        <ele>1295</ele>
        <time>2019-06-03T19:40:13Z</time>
      </trkpt>
      <trkpt lat="44.73805" lon="5.87982">
        <ele>1305</ele>
        <time>2019-06-03T19:41:04Z</time>
      </trkpt>
      <trkpt lat="44.73816" lon="5.8793">
        <ele>1315</ele>
        <time>2019-06-03T19:41:35Z</time>
      </trkpt>
      <trkpt lat="44.73854" lon="5.87909">
        <ele>1322</ele>
        <time>2019-06-03T19:42:07Z</time>
      </trkpt>
      <trkpt lat="44.73872" lon="5.87851">
        <ele>1332</ele>
        <time>2019-06-03T19:42:43Z</time>
      </trkpt>
      <trkpt lat="44.73919" lon="5.87842">
        <ele>1339</ele>
        <time>2019-06-03T19:43:21Z</time>
      </trkpt>
      <trkpt lat="44.739" lon="5.87727">
        <ele>1360</ele>
        <time>2019-06-03T19:44:28Z</time>
      </trkpt>
      <trkpt lat="44.73951" lon="5.87678">
        <ele>1376</ele>
        <time>2019-06-03T19:45:18Z</time>
      </trkpt>
      <trkpt lat="44.73956" lon="5.87642">
        <ele>1384</ele>
        <time>2019-06-03T19:45:39Z</time>
      </trkpt>
      <trkpt lat="44.73992" lon="5.87569">
        <ele>1400</ele>
        <time>2019-06-03T19:46:29Z</time>
      </trkpt>
      <trkpt lat="44.74027" lon="5.87593">
        <ele>1400</ele>
        <time>2019-06-03T19:47:00Z</time>
      </trkpt>
      <trkpt lat="44.74107" lon="5.87557">
        <ele>1415</ele>
        <time>2019-06-03T19:48:08Z</time>
      </trkpt>
      <trkpt lat="44.74161" lon="5.87475">
        <ele>1431</ele>
        <time>2019-06-03T19:49:11Z</time>
      </trkpt>
      <trkpt lat="44.74189" lon="5.87502">
        <ele>1430</ele>
        <time>2019-06-03T19:49:38Z</time>
      </trkpt>
      <trkpt lat="44.74214" lon="5.87411">
        <ele>1445</ele>
        <time>2019-06-03T19:50:34Z</time>
      </trkpt>
      <trkpt lat="44.74283" lon="5.8739">
        <ele>1452</ele>
        <time>2019-06-03T19:51:31Z</time>
      </trkpt>
      <trkpt lat="44.74249" lon="5.87335">
        <ele>1461</ele>
        <time>2019-06-03T19:52:12Z</time>
      </trkpt>
      <trkpt lat="44.7423" lon="5.87217">
        <ele>1473</ele>
        <time>2019-06-03T19:53:21Z</time>
      </trkpt>
      <trkpt lat="44.74299" lon="5.87199">
        <ele>1479</ele>
        <time>2019-06-03T19:54:17Z</time>
      </trkpt>
      <trkpt lat="44.74303" lon="5.87147">
        <ele>1486</ele>
        <time>2019-06-03T19:54:47Z</time>
      </trkpt>
      <trkpt lat="44.74277" lon="5.87114">
        <ele>1490</ele>
        <time>2019-06-03T19:55:15Z</time>
      </trkpt>
      <trkpt lat="44.74292" lon="5.87032">
        <ele>1503</ele>
        <time>2019-06-03T19:56:03Z</time>
      </trkpt>
      <trkpt lat="44.74266" lon="5.8692">
        <ele>1515</ele>
        <time>2019-06-03T19:57:10Z</time>
      </trkpt>
      <trkpt lat="44.74333" lon="5.86862">
        <ele>1532</ele>
        <time>2019-06-03T19:58:13Z</time>
      </trkpt>
      <trkpt lat="44.74214" lon="5.86804">
        <ele>1538</ele>
        <time>2019-06-03T19:59:54Z</time>
      </trkpt>
      <trkpt lat="44.7415" lon="5.86762">
        <ele>1548</ele>
        <time>2019-06-03T20:00:50Z</time>
      </trkpt>
      <trkpt lat="44.74133" lon="5.86722">
        <ele>1558</ele>
        <time>2019-06-03T20:01:17Z</time>
      </trkpt>
      <trkpt lat="44.74053" lon="5.86713">
        <ele>1561</ele>
        <time>2019-06-03T20:02:21Z</time>
      </trkpt>
      <trkpt lat="44.74008" lon="5.86616">
        <ele>1582</ele>
        <time>2019-06-03T20:03:27Z</time>
      </trkpt>
      <trkpt lat="44.74048" lon="5.8654">
        <ele>1598</ele>
        <time>2019-06-03T20:04:21Z</time>
      </trkpt>
      <trkpt lat="44.74031" lon="5.86479">
        <ele>1615</ele>
        <time>2019-06-03T20:04:58Z</time>
      </trkpt>
      <trkpt lat="44.73964" lon="5.86473">
        <ele>1628</ele>
        <time>2019-06-03T20:05:52Z</time>
      </trkpt>
      <trkpt lat="44.73773" lon="5.86464">
        <ele>1635</ele>
        <time>2019-06-03T20:08:25Z</time>
      </trkpt>
      <trkpt lat="44.73691" lon="5.86489">
        <ele>1623</ele>
        <time>2019-06-03T20:09:32Z</time>
      </trkpt>
      <trkpt lat="44.73615" lon="5.86458">
        <ele>1618</ele>
        <time>2019-06-03T20:10:35Z</time>
      </trkpt>
      <trkpt lat="44.73574" lon="5.8641">
        <ele>1620</ele>
        <time>2019-06-03T20:11:18Z</time>
      </trkpt>
      <trkpt lat="44.73456" lon="5.86395">
        <ele>1607</ele>
        <time>2019-06-03T20:12:53Z</time>
      </trkpt>
      <trkpt lat="44.73374" lon="5.86425">
        <ele>1597</ele>
        <time>2019-06-03T20:14:01Z</time>
      </trkpt>
      <trkpt lat="44.73288" lon="5.86434">
        <ele>1591</ele>
        <time>2019-06-03T20:15:10Z</time>
      </trkpt>
      <trkpt lat="44.73156" lon="5.8644">
        <ele>1584</ele>
        <time>2019-06-03T20:16:55Z</time>
      </trkpt>
      <trkpt lat="44.72966" lon="5.86388">
        <ele>1589</ele>
        <time>2019-06-03T20:19:30Z</time>
      </trkpt>
      <trkpt lat="44.72908" lon="5.86398">
        <ele>1581</ele>
        <time>2019-06-03T20:20:17Z</time>
      </trkpt>
      <trkpt lat="44.72871" lon="5.8651">
        <ele>1555</ele>
        <time>2019-06-03T20:21:27Z</time>
      </trkpt>
      <trkpt lat="44.72846" lon="5.8661">
        <ele>1537</ele>
        <time>2019-06-03T20:22:28Z</time>
      </trkpt>
      <trkpt lat="44.72902" lon="5.86613">
        <ele>1541</ele>
        <time>2019-06-03T20:23:13Z</time>
      </trkpt>
      <trkpt lat="44.72921" lon="5.86659">
        <ele>1535</ele>
        <time>2019-06-03T20:23:43Z</time>
      </trkpt>
      <trkpt lat="44.72904" lon="5.8671">
        <ele>1526</ele>
        <time>2019-06-03T20:24:15Z</time>
      </trkpt>
      <trkpt lat="44.72925" lon="5.86789">
        <ele>1521</ele>
        <time>2019-06-03T20:25:03Z</time>
      </trkpt>
      <trkpt lat="44.72854" lon="5.86926">
        <ele>1490</ele>
        <time>2019-06-03T20:26:39Z</time>
      </trkpt>
      <trkpt lat="44.72822" lon="5.87092">
        <ele>1469</ele>
        <time>2019-06-03T20:28:17Z</time>
      </trkpt>
      <trkpt lat="44.72798" lon="5.87165">
        <ele>1464</ele>
        <time>2019-06-03T20:29:03Z</time>
      </trkpt>
      <trkpt lat="44.72766" lon="5.87405">
        <ele>1443</ele>
        <time>2019-06-03T20:31:22Z</time>
      </trkpt>
      <trkpt lat="44.72738" lon="5.87481">
        <ele>1431</ele>
        <time>2019-06-03T20:32:11Z</time>
      </trkpt>
      <trkpt lat="44.72604" lon="5.8766">
        <ele>1403</ele>
        <time>2019-06-03T20:34:39Z</time>
      </trkpt>
      <trkpt lat="44.72604" lon="5.87563">
        <ele>1404</ele>
        <time>2019-06-03T20:35:34Z</time>
      </trkpt>
      <trkpt lat="44.72596" lon="5.87514">
        <ele>1400</ele>
        <time>2019-06-03T20:36:02Z</time>
      </trkpt>
      <trkpt lat="44.72656" lon="5.87275">
        <ele>1408</ele>
        <time>2019-06-03T20:38:27Z</time>
      </trkpt>
      <trkpt lat="44.72583" lon="5.87265">
        <ele>1382</ele>
        <time>2019-06-03T20:39:25Z</time>
      </trkpt>
      <trkpt lat="44.7246" lon="5.87353">
        <ele>1347</ele>
        <time>2019-06-03T20:41:16Z</time>
      </trkpt>
      <trkpt lat="44.72309" lon="5.87548">
        <ele>1307</ele>
        <time>2019-06-03T20:44:00Z</time>
      </trkpt>
      <trkpt lat="44.72266" lon="5.87599">
        <ele>1297</ele>
        <time>2019-06-03T20:44:45Z</time>
      </trkpt>
      <trkpt lat="44.72175" lon="5.87523">
        <ele>1297</ele>
        <time>2019-06-03T20:46:10Z</time>
      </trkpt>
      <trkpt lat="44.72143" lon="5.87372">
        <ele>1322</ele>
        <time>2019-06-03T20:47:39Z</time>
      </trkpt>
      <trkpt lat="44.7208" lon="5.87296">
        <ele>1346</ele>
        <time>2019-06-03T20:48:46Z</time>
      </trkpt>
      <trkpt lat="44.72033" lon="5.87278">
        <ele>1360</ele>
        <time>2019-06-03T20:49:25Z</time>
      </trkpt>
      <trkpt lat="44.7202" lon="5.87217">
        <ele>1372</ele>
        <time>2019-06-03T20:50:01Z</time>
      </trkpt>
      <trkpt lat="44.71998" lon="5.87193">
        <ele>1382</ele>
        <time>2019-06-03T20:50:23Z</time>
      </trkpt>
      <trkpt lat="44.71968" lon="5.87114">
        <ele>1406</ele>
        <time>2019-06-03T20:51:14Z</time>
      </trkpt>
      <trkpt lat="44.71992" lon="5.87008">
        <ele>1424</ele>
        <time>2019-06-03T20:52:17Z</time>
      </trkpt>
      <trkpt lat="44.71962" lon="5.86953">
        <ele>1446</ele>
        <time>2019-06-03T20:52:57Z</time>
      </trkpt>
      <trkpt lat="44.71865" lon="5.8695">
        <ele>1466</ele>
        <time>2019-06-03T20:54:15Z</time>
      </trkpt>
      <trkpt lat="44.71813" lon="5.87071">
        <ele>1450</ele>
        <time>2019-06-03T20:55:35Z</time>
      </trkpt>
      <trkpt lat="44.71787" lon="5.86898">
        <ele>1478</ele>
        <time>2019-06-03T20:57:16Z</time>
      </trkpt>
      <trkpt lat="44.71821" lon="5.86731">
        <ele>1485</ele>
        <time>2019-06-03T20:58:54Z</time>
      </trkpt>
      <trkpt lat="44.71856" lon="5.8654">
        <ele>1495</ele>
        <time>2019-06-03T21:00:47Z</time>
      </trkpt>
      <trkpt lat="44.71809" lon="5.86467">
        <ele>1502</ele>
        <time>2019-06-03T21:01:43Z</time>
      </trkpt>
      <trkpt lat="44.71724" lon="5.86446">
        <ele>1501</ele>
        <time>2019-06-03T21:02:52Z</time>
      </trkpt>
      <trkpt lat="44.71707" lon="5.86395">
        <ele>1502</ele>
        <time>2019-06-03T21:03:24Z</time>
      </trkpt>
      <trkpt lat="44.7166" lon="5.86346">
        <ele>1497</ele>
        <time>2019-06-03T21:04:11Z</time>
      </trkpt>
      <trkpt lat="44.7161" lon="5.86476">
        <ele>1473</ele>
        <time>2019-06-03T21:05:35Z</time>
      </trkpt>
      <trkpt lat="44.71614" lon="5.86622">
        <ele>1465</ele>
        <time>2019-06-03T21:06:58Z</time>
      </trkpt>
      <trkpt lat="44.71558" lon="5.86832">
        <ele>1440</ele>
        <time>2019-06-03T21:09:06Z</time>
      </trkpt>
      <trkpt lat="44.71524" lon="5.86935">
        <ele>1423</ele>
        <time>2019-06-03T21:10:10Z</time>
      </trkpt>
      <trkpt lat="44.71494" lon="5.87147">
        <ele>1400</ele>
        <time>2019-06-03T21:12:13Z</time>
      </trkpt>
      <trkpt lat="44.7141" lon="5.87059">
        <ele>1397</ele>
        <time>2019-06-03T21:13:37Z</time>
      </trkpt>
      <trkpt lat="44.7142" lon="5.86959">
        <ele>1401</ele>
        <time>2019-06-03T21:14:34Z</time>
      </trkpt>
      <trkpt lat="44.71407" lon="5.86874">
        <ele>1400</ele>
        <time>2019-06-03T21:15:24Z</time>
      </trkpt>
      <trkpt lat="44.71354" lon="5.86853">
        <ele>1395</ele>
        <time>2019-06-03T21:16:08Z</time>
      </trkpt>
      <trkpt lat="44.71319" lon="5.86768">
        <ele>1397</ele>
        <time>2019-06-03T21:17:04Z</time>
      </trkpt>
      <trkpt lat="44.71192" lon="5.86674">
        <ele>1382</ele>
        <time>2019-06-03T21:18:59Z</time>
      </trkpt>
      <trkpt lat="44.71175" lon="5.86628">
        <ele>1380</ele>
        <time>2019-06-03T21:19:28Z</time>
      </trkpt>
      <trkpt lat="44.71101" lon="5.86549">
        <ele>1376</ele>
        <time>2019-06-03T21:20:43Z</time>
      </trkpt>
      <trkpt lat="44.71047" lon="5.8631">
        <ele>1397</ele>
        <time>2019-06-03T21:23:05Z</time>
      </trkpt>
      <trkpt lat="44.71017" lon="5.86291">
        <ele>1405</ele>
        <time>2019-06-03T21:23:32Z</time>
      </trkpt>
      <trkpt lat="44.70935" lon="5.86367">
        <ele>1410</ele>
        <time>2019-06-03T21:24:50Z</time>
      </trkpt>
      <trkpt lat="44.70864" lon="5.86352">
        <ele>1422</ele>
        <time>2019-06-03T21:25:48Z</time>
      </trkpt>
      <trkpt lat="44.70754" lon="5.86385">
        <ele>1435</ele>
        <time>2019-06-03T21:27:18Z</time>
      </trkpt>
      <trkpt lat="44.70663" lon="5.86404">
        <ele>1445</ele>
        <time>2019-06-03T21:28:32Z</time>
      </trkpt>
      <trkpt lat="44.70657" lon="5.86443">
        <ele>1441</ele>
        <time>2019-06-03T21:28:54Z</time>
      </trkpt>
      <trkpt lat="44.70603" lon="5.86388">
        <ele>1457</ele>
        <time>2019-06-03T21:29:48Z</time>
      </trkpt>
      <trkpt lat="44.70553" lon="5.86395">
        <ele>1466</ele>
        <time>2019-06-03T21:30:28Z</time>
      </trkpt>
      <trkpt lat="44.70533" lon="5.86443">
        <ele>1461</ele>
        <time>2019-06-03T21:31:00Z</time>
      </trkpt>
      <trkpt lat="44.7047" lon="5.86476">
        <ele>1466</ele>
        <time>2019-06-03T21:31:53Z</time>
      </trkpt>
      <trkpt lat="44.70437" lon="5.86517">
        <ele>1463</ele>
        <time>2019-06-03T21:32:29Z</time>
      </trkpt>
      <trkpt lat="44.70293" lon="5.86532">
        <ele>1460</ele>
        <time>2019-06-03T21:34:24Z</time>
      </trkpt>
      <trkpt lat="44.70235" lon="5.8653">
        <ele>1457</ele>
        <time>2019-06-03T21:35:11Z</time>
      </trkpt>
      <trkpt lat="44.70192" lon="5.86507">
        <ele>1454</ele>
        <time>2019-06-03T21:35:47Z</time>
      </trkpt>
      <trkpt lat="44.70135" lon="5.86472">
        <ele>1456</ele>
        <time>2019-06-03T21:36:37Z</time>
      </trkpt>
      <trkpt lat="44.70074" lon="5.86465">
        <ele>1456</ele>
        <time>2019-06-03T21:37:26Z</time>
      </trkpt>
      <trkpt lat="44.69985" lon="5.86449">
        <ele>1450</ele>
        <time>2019-06-03T21:38:38Z</time>
      </trkpt>
      <trkpt lat="44.69881" lon="5.86357">
        <ele>1455</ele>
        <time>2019-06-03T21:40:16Z</time>
      </trkpt>
      <trkpt lat="44.69735" lon="5.86339">
        <ele>1439</ele>
        <time>2019-06-03T21:42:14Z</time>
      </trkpt>
      <trkpt lat="44.69654" lon="5.86341">
        <ele>1427</ele>
        <time>2019-06-03T21:43:19Z</time>
      </trkpt>
      <trkpt lat="44.69543" lon="5.86333">
        <ele>1416</ele>
        <time>2019-06-03T21:44:48Z</time>
      </trkpt>
      <trkpt lat="44.69455" lon="5.8633">
        <ele>1405</ele>
        <time>2019-06-03T21:45:58Z</time>
      </trkpt>
      <trkpt lat="44.69387" lon="5.86368">
        <ele>1397</ele>
        <time>2019-06-03T21:46:57Z</time>
      </trkpt>
      <trkpt lat="44.69339" lon="5.86369">
        <ele>1397</ele>
        <time>2019-06-03T21:47:35Z</time>
      </trkpt>
      <trkpt lat="44.69296" lon="5.86409">
        <ele>1394</ele>
        <time>2019-06-03T21:48:16Z</time>
      </trkpt>
      <trkpt lat="44.69243" lon="5.8638">
        <ele>1396</ele>
        <time>2019-06-03T21:49:02Z</time>
      </trkpt>
      <trkpt lat="44.69196" lon="5.86382">
        <ele>1396</ele>
        <time>2019-06-03T21:49:40Z</time>
      </trkpt>
      <trkpt lat="44.69128" lon="5.86292">
        <ele>1403</ele>
        <time>2019-06-03T21:50:54Z</time>
      </trkpt>
      <trkpt lat="44.68977" lon="5.86326">
        <ele>1404</ele>
        <time>2019-06-03T21:52:57Z</time>
      </trkpt>
      <trkpt lat="44.68968" lon="5.86263">
        <ele>1406</ele>
        <time>2019-06-03T21:53:33Z</time>
      </trkpt>
      <trkpt lat="44.68936" lon="5.86239">
        <ele>1408</ele>
        <time>2019-06-03T21:54:02Z</time>
      </trkpt>
      <trkpt lat="44.68928" lon="5.86124">
        <ele>1419</ele>
        <time>2019-06-03T21:55:08Z</time>
      </trkpt>
      <trkpt lat="44.68889" lon="5.8611">
        <ele>1423</ele>
        <time>2019-06-03T21:55:40Z</time>
      </trkpt>
      <trkpt lat="44.68806" lon="5.86036">
        <ele>1435</ele>
        <time>2019-06-03T21:56:59Z</time>
      </trkpt>
      <trkpt lat="44.68758" lon="5.85913">
        <ele>1448</ele>
        <time>2019-06-03T21:58:19Z</time>
      </trkpt>
      <trkpt lat="44.68687" lon="5.85864">
        <ele>1453</ele>
        <time>2019-06-03T21:59:22Z</time>
      </trkpt>
      <trkpt lat="44.68673" lon="5.85794">
        <ele>1458</ele>
        <time>2019-06-03T22:00:04Z</time>
      </trkpt>
      <trkpt lat="44.68652" lon="5.85732">
        <ele>1461</ele>
        <time>2019-06-03T22:00:43Z</time>
      </trkpt>
      <trkpt lat="44.68597" lon="5.85687">
        <ele>1459</ele>
        <time>2019-06-03T22:01:34Z</time>
      </trkpt>
      <trkpt lat="44.68567" lon="5.85633">
        <ele>1458</ele>
        <time>2019-06-03T22:02:13Z</time>
      </trkpt>
      <trkpt lat="44.68514" lon="5.85503">
        <ele>1454</ele>
        <time>2019-06-03T22:03:38Z</time>
      </trkpt>
      <trkpt lat="44.68478" lon="5.85447">
        <ele>1460</ele>
        <time>2019-06-03T22:04:21Z</time>
      </trkpt>
      <trkpt lat="44.6846" lon="5.85428">
        <ele>1465</ele>
        <time>2019-06-03T22:04:39Z</time>
      </trkpt>
      <trkpt lat="44.68434" lon="5.85428">
        <ele>1470</ele>
        <time>2019-06-03T22:05:00Z</time>
      </trkpt>
      <trkpt lat="44.68447" lon="5.85392">
        <ele>1469</ele>
        <time>2019-06-03T22:05:23Z</time>
      </trkpt>
      <trkpt lat="44.68408" lon="5.85385">
        <ele>1476</ele>
        <time>2019-06-03T22:05:54Z</time>
      </trkpt>
      <trkpt lat="44.68379" lon="5.85384">
        <ele>1479</ele>
        <time>2019-06-03T22:06:18Z</time>
      </trkpt>
      <trkpt lat="44.68357" lon="5.85341">
        <ele>1485</ele>
        <time>2019-06-03T22:06:48Z</time>
      </trkpt>
      <trkpt lat="44.68325" lon="5.85266">
        <ele>1501</ele>
        <time>2019-06-03T22:07:38Z</time>
      </trkpt>
      <trkpt lat="44.6827" lon="5.85185">
        <ele>1510</ele>
        <time>2019-06-03T22:08:41Z</time>
      </trkpt>
      <trkpt lat="44.68246" lon="5.85156">
        <ele>1509</ele>
        <time>2019-06-03T22:09:07Z</time>
      </trkpt>
      <trkpt lat="44.68208" lon="5.85118">
        <ele>1511</ele>
        <time>2019-06-03T22:09:44Z</time>
      </trkpt>
      <trkpt lat="44.68176" lon="5.85061">
        <ele>1517</ele>
        <time>2019-06-03T22:10:25Z</time>
      </trkpt>
      <trkpt lat="44.68141" lon="5.85012">
        <ele>1519</ele>
        <time>2019-06-03T22:11:05Z</time>
      </trkpt>
      <trkpt lat="44.68131" lon="5.84966">
        <ele>1521</ele>
        <time>2019-06-03T22:11:32Z</time>
      </trkpt>
      <trkpt lat="44.68129" lon="5.84789">
        <ele>1534</ele>
        <time>2019-06-03T22:13:13Z</time>
      </trkpt>
      <trkpt lat="44.68103" lon="5.84747">
        <ele>1529</ele>
        <time>2019-06-03T22:13:45Z</time>
      </trkpt>
      <trkpt lat="44.68051" lon="5.84748">
        <ele>1514</ele>
        <time>2019-06-03T22:14:26Z</time>
      </trkpt>
      <trkpt lat="44.68024" lon="5.84725">
        <ele>1510</ele>
        <time>2019-06-03T22:14:52Z</time>
      </trkpt>
      <trkpt lat="44.67991" lon="5.84747">
        <ele>1500</ele>
        <time>2019-06-03T22:15:21Z</time>
      </trkpt>
      <trkpt lat="44.67965" lon="5.84755">
        <ele>1490</ele>
        <time>2019-06-03T22:15:42Z</time>
      </trkpt>
      <trkpt lat="44.6794" lon="5.84755">
        <ele>1483</ele>
        <time>2019-06-03T22:16:02Z</time>
      </trkpt>
      <trkpt lat="44.67922" lon="5.84738">
        <ele>1480</ele>
        <time>2019-06-03T22:16:20Z</time>
      </trkpt>
      <trkpt lat="44.67876" lon="5.84713">
        <ele>1471</ele>
        <time>2019-06-03T22:16:59Z</time>
      </trkpt>
      <trkpt lat="44.67832" lon="5.84647">
        <ele>1473</ele>
        <time>2019-06-03T22:17:51Z</time>
      </trkpt>
      <trkpt lat="44.67791" lon="5.84596">
        <ele>1473</ele>
        <time>2019-06-03T22:18:34Z</time>
      </trkpt>
      <trkpt lat="44.67766" lon="5.84556">
        <ele>1473</ele>
        <time>2019-06-03T22:19:05Z</time>
      </trkpt>
      <trkpt lat="44.67786" lon="5.84495">
        <ele>1488</ele>
        <time>2019-06-03T22:19:43Z</time>
      </trkpt>
      <trkpt lat="44.67713" lon="5.84405">
        <ele>1501</ele>
        <time>2019-06-03T22:21:01Z</time>
      </trkpt>
      <trkpt lat="44.67633" lon="5.8443">
        <ele>1488</ele>
        <time>2019-06-03T22:22:06Z</time>
      </trkpt>
      <trkpt lat="44.67589" lon="5.84364">
        <ele>1494</ele>
        <time>2019-06-03T22:22:58Z</time>
      </trkpt>
      <trkpt lat="44.67589" lon="5.84333">
        <ele>1499</ele>
        <time>2019-06-03T22:23:15Z</time>
      </trkpt>
      <trkpt lat="44.67553" lon="5.84272">
        <ele>1506</ele>
        <time>2019-06-03T22:24:01Z</time>
      </trkpt>
      <trkpt lat="44.67509" lon="5.84063">
        <ele>1535</ele>
        <time>2019-06-03T22:26:05Z</time>
      </trkpt>
      <trkpt lat="44.67491" lon="5.83945">
        <ele>1546</ele>
        <time>2019-06-03T22:27:13Z</time>
      </trkpt>
      <trkpt lat="44.6748" lon="5.83843">
        <ele>1555</ele>
        <time>2019-06-03T22:28:12Z</time>
      </trkpt>
      <trkpt lat="44.67453" lon="5.83716">
        <ele>1560</ele>
        <time>2019-06-03T22:29:28Z</time>
      </trkpt>
      <trkpt lat="44.67437" lon="5.8355">
        <ele>1578</ele>
        <time>2019-06-03T22:31:03Z</time>
      </trkpt>
      <trkpt lat="44.67415" lon="5.83486">
        <ele>1578</ele>
        <time>2019-06-03T22:31:43Z</time>
      </trkpt>
      <trkpt lat="44.67339" lon="5.8369">
        <ele>1560</ele>
        <time>2019-06-03T22:33:55Z</time>
      </trkpt>
      <trkpt lat="44.6735" lon="5.83749">
        <ele>1553</ele>
        <time>2019-06-03T22:34:29Z</time>
      </trkpt>
      <trkpt lat="44.67341" lon="5.83825">
        <ele>1547</ele>
        <time>2019-06-03T22:35:13Z</time>
      </trkpt>
      <trkpt lat="44.67375" lon="5.8392">
        <ele>1535</ele>
        <time>2019-06-03T22:36:14Z</time>
      </trkpt>
      <trkpt lat="44.67391" lon="5.84045">
        <ele>1520</ele>
        <time>2019-06-03T22:37:26Z</time>
      </trkpt>
      <trkpt lat="44.67382" lon="5.84073">
        <ele>1518</ele>
        <time>2019-06-03T22:37:44Z</time>
      </trkpt>
      <trkpt lat="44.67393" lon="5.84167">
        <ele>1513</ele>
        <time>2019-06-03T22:38:38Z</time>
      </trkpt>
      <trkpt lat="44.67324" lon="5.84323">
        <ele>1509</ele>
        <time>2019-06-03T22:40:22Z</time>
      </trkpt>
      <trkpt lat="44.6727" lon="5.84397">
        <ele>1511</ele>
        <time>2019-06-03T22:41:23Z</time>
      </trkpt>
      <trkpt lat="44.67188" lon="5.8444">
        <ele>1522</ele>
        <time>2019-06-03T22:42:33Z</time>
      </trkpt>
      <trkpt lat="44.67156" lon="5.84479">
        <ele>1519</ele>
        <time>2019-06-03T22:43:07Z</time>
      </trkpt>
      <trkpt lat="44.67058" lon="5.84469">
        <ele>1535</ele>
        <time>2019-06-03T22:44:25Z</time>
      </trkpt>
      <trkpt lat="44.66994" lon="5.84568">
        <ele>1523</ele>
        <time>2019-06-03T22:45:42Z</time>
      </trkpt>
      <trkpt lat="44.66945" lon="5.84583">
        <ele>1522</ele>
        <time>2019-06-03T22:46:22Z</time>
      </trkpt>
      <trkpt lat="44.66997" lon="5.84415">
        <ele>1551</ele>
        <time>2019-06-03T22:48:06Z</time>
      </trkpt>
      <trkpt lat="44.66786" lon="5.84333">
        <ele>1587</ele>
        <time>2019-06-03T22:51:01Z</time>
      </trkpt>
      <trkpt lat="44.66762" lon="5.84273">
        <ele>1598</ele>
        <time>2019-06-03T22:51:41Z</time>
      </trkpt>
      <trkpt lat="44.66704" lon="5.84204">
        <ele>1611</ele>
        <time>2019-06-03T22:52:41Z</time>
      </trkpt>
      <trkpt lat="44.66652" lon="5.84204">
        <ele>1611</ele>
        <time>2019-06-03T22:53:23Z</time>
      </trkpt>
      <trkpt lat="44.66621" lon="5.8402">
        <ele>1648</ele>
        <time>2019-06-03T22:55:11Z</time>
      </trkpt>
      <trkpt lat="44.66707" lon="5.83947">
        <ele>1665</ele>
        <time>2019-06-03T22:56:31Z</time>
      </trkpt>
      <trkpt lat="44.66664" lon="5.838">
        <ele>1688</ele>
        <time>2019-06-03T22:58:02Z</time>
      </trkpt>
      <trkpt lat="44.66722" lon="5.83625">
        <ele>1712</ele>
        <time>2019-06-03T22:59:52Z</time>
      </trkpt>
      <trkpt lat="44.66742" lon="5.83578">
        <ele>1718</ele>
        <time>2019-06-03T23:00:23Z</time>
      </trkpt>
      <trkpt lat="44.66768" lon="5.83566">
        <ele>1725</ele>
        <time>2019-06-03T23:00:45Z</time>
      </trkpt>
      <trkpt lat="44.66789" lon="5.83583">
        <ele>1727</ele>
        <time>2019-06-03T23:01:04Z</time>
      </trkpt>
      <trkpt lat="44.66846" lon="5.83544">
        <ele>1748</ele>
        <time>2019-06-03T23:01:55Z</time>
      </trkpt>
      <trkpt lat="44.66871" lon="5.83498">
        <ele>1760</ele>
        <time>2019-06-03T23:02:28Z</time>
      </trkpt>
      <trkpt lat="44.66884" lon="5.83423">
        <ele>1785</ele>
        <time>2019-06-03T23:03:12Z</time>
      </trkpt>
      <trkpt lat="44.66861" lon="5.83345">
        <ele>1816</ele>
        <time>2019-06-03T23:04:00Z</time>
      </trkpt>
      <trkpt lat="44.66809" lon="5.83278">
        <ele>1844</ele>
        <time>2019-06-03T23:04:56Z</time>
      </trkpt>
      <trkpt lat="44.66759" lon="5.8319">
        <ele>1878</ele>
        <time>2019-06-03T23:06:01Z</time>
      </trkpt>
      <trkpt lat="44.66722" lon="5.83146">
        <ele>1885</ele>
        <time>2019-06-03T23:06:39Z</time>
      </trkpt>
      <trkpt lat="44.66751" lon="5.83083">
        <ele>1897</ele>
        <time>2019-06-03T23:07:22Z</time>
      </trkpt>
      <trkpt lat="44.66702" lon="5.83028">
        <ele>1897</ele>
        <time>2019-06-03T23:08:12Z</time>
      </trkpt>
      <trkpt lat="44.66681" lon="5.82939">
        <ele>1909</ele>
        <time>2019-06-03T23:09:06Z</time>
      </trkpt>
      <trkpt lat="44.66678" lon="5.8285">
        <ele>1932</ele>
        <time>2019-06-03T23:09:56Z</time>
      </trkpt>
      <trkpt lat="44.66639" lon="5.82777">
        <ele>1941</ele>
        <time>2019-06-03T23:10:48Z</time>
      </trkpt>
      <trkpt lat="44.66538" lon="5.82686">
        <ele>1949</ele>
        <time>2019-06-03T23:12:24Z</time>
      </trkpt>
      <trkpt lat="44.66529" lon="5.82664">
        <ele>1954</ele>
        <time>2019-06-03T23:12:39Z</time>
      </trkpt>
      <trkpt lat="44.66568" lon="5.82624">
        <ele>1946</ele>
        <time>2019-06-03T23:13:18Z</time>
      </trkpt>
      <trkpt lat="44.66589" lon="5.82614">
        <ele>1939</ele>
        <time>2019-06-03T23:13:35Z</time>
      </trkpt>
      <trkpt lat="44.66658" lon="5.82544">
        <ele>1896</ele>
        <time>2019-06-03T23:14:43Z</time>
      </trkpt>
      <trkpt lat="44.66749" lon="5.82444">
        <ele>1852</ele>
        <time>2019-06-03T23:16:16Z</time>
      </trkpt>
      <trkpt lat="44.66777" lon="5.82365">
        <ele>1837</ele>
        <time>2019-06-03T23:17:06Z</time>
      </trkpt>
      <trkpt lat="44.66802" lon="5.82281">
        <ele>1823</ele>
        <time>2019-06-03T23:17:58Z</time>
      </trkpt>
      <trkpt lat="44.66806" lon="5.8223">
        <ele>1819</ele>
        <time>2019-06-03T23:18:27Z</time>
      </trkpt>
      <trkpt lat="44.66818" lon="5.82161">
        <ele>1815</ele>
        <time>2019-06-03T23:19:08Z</time>
      </trkpt>
      <trkpt lat="44.66829" lon="5.82131">
        <ele>1812</ele>
        <time>2019-06-03T23:19:27Z</time>
      </trkpt>
      <trkpt lat="44.66853" lon="5.82123">
        <ele>1810</ele>
        <time>2019-06-03T23:19:47Z</time>
      </trkpt>
      <trkpt lat="44.66854" lon="5.82036">
        <ele>1812</ele>
        <time>2019-06-03T23:20:36Z</time>
      </trkpt>
      <trkpt lat="44.66864" lon="5.81947">
        <ele>1815</ele>
        <time>2019-06-03T23:21:27Z</time>
      </trkpt>
      <trkpt lat="44.66891" lon="5.81919">
        <ele>1815</ele>
        <time>2019-06-03T23:21:54Z</time>
      </trkpt>
      <trkpt lat="44.66934" lon="5.81906">
        <ele>1815</ele>
        <time>2019-06-03T23:22:30Z</time>
      </trkpt>
      <trkpt lat="44.66952" lon="5.81871">
        <ele>1818</ele>
        <time>2019-06-03T23:22:54Z</time>
      </trkpt>
      <trkpt lat="44.66956" lon="5.81816">
        <ele>1821</ele>
        <time>2019-06-03T23:23:26Z</time>
      </trkpt>
      <trkpt lat="44.66955" lon="5.8171">
        <ele>1829</ele>
        <time>2019-06-03T23:24:26Z</time>
      </trkpt>
      <trkpt lat="44.66982" lon="5.81578">
        <ele>1839</ele>
        <time>2019-06-03T23:25:44Z</time>
      </trkpt>
      <trkpt lat="44.66992" lon="5.81538">
        <ele>1838</ele>
        <time>2019-06-03T23:26:08Z</time>
      </trkpt>
      <trkpt lat="44.67041" lon="5.81429">
        <ele>1839</ele>
        <time>2019-06-03T23:27:22Z</time>
      </trkpt>
      <trkpt lat="44.67097" lon="5.81248">
        <ele>1846</ele>
        <time>2019-06-03T23:29:14Z</time>
      </trkpt>
      <trkpt lat="44.67092" lon="5.81064">
        <ele>1853</ele>
        <time>2019-06-03T23:30:59Z</time>
      </trkpt>
      <trkpt lat="44.67043" lon="5.80993">
        <ele>1863</ele>
        <time>2019-06-03T23:31:55Z</time>
      </trkpt>
      <trkpt lat="44.66981" lon="5.80817">
        <ele>1883</ele>
        <time>2019-06-03T23:33:47Z</time>
      </trkpt>
      <trkpt lat="44.66943" lon="5.80552">
        <ele>1926</ele>
        <time>2019-06-03T23:36:21Z</time>
      </trkpt>
      <trkpt lat="44.66936" lon="5.80358">
        <ele>1953</ele>
        <time>2019-06-03T23:38:12Z</time>
      </trkpt>
      <trkpt lat="44.66909" lon="5.80062">
        <ele>2017</ele>
        <time>2019-06-03T23:41:02Z</time>
      </trkpt>
      <trkpt lat="44.66952" lon="5.80628">
        <ele>1918</ele>
        <time>2019-06-03T23:46:26Z</time>
      </trkpt>
      <trkpt lat="44.67005" lon="5.80901">
        <ele>1868</ele>
        <time>2019-06-03T23:49:07Z</time>
      </trkpt>
      <trkpt lat="44.67107" lon="5.81151">
        <ele>1849</ele>
        <time>2019-06-03T23:51:51Z</time>
      </trkpt>
      <trkpt lat="44.67088" lon="5.81411">
        <ele>1841</ele>
        <time>2019-06-03T23:54:20Z</time>
      </trkpt>
      <trkpt lat="44.6707" lon="5.8159">
        <ele>1833</ele>
        <time>2019-06-03T23:56:03Z</time>
      </trkpt>
      <trkpt lat="44.67099" lon="5.81797">
        <ele>1829</ele>
        <time>2019-06-03T23:58:03Z</time>
      </trkpt>
      <trkpt lat="44.67078" lon="5.81889">
        <ele>1822</ele>
        <time>2019-06-03T23:58:58Z</time>
      </trkpt>
      <trkpt lat="44.67145" lon="5.82215">
        <ele>1822</ele>
        <time>2019-06-04T00:02:11Z</time>
      </trkpt>
      <trkpt lat="44.67152" lon="5.82264">
        <ele>1820</ele>
        <time>2019-06-04T00:02:40Z</time>
      </trkpt>
      <trkpt lat="44.67058" lon="5.82481">
        <ele>1808</ele>
        <time>2019-06-04T00:05:04Z</time>
      </trkpt>
      <trkpt lat="44.67014" lon="5.82596">
        <ele>1804</ele>
        <time>2019-06-04T00:06:19Z</time>
      </trkpt>
      <trkpt lat="44.66976" lon="5.82721">
        <ele>1801</ele>
        <time>2019-06-04T00:07:36Z</time>
      </trkpt>
      <trkpt lat="44.66831" lon="5.82542">
        <ele>1838</ele>
        <time>2019-06-04T00:10:11Z</time>
      </trkpt>
      <trkpt lat="44.66729" lon="5.82509">
        <ele>1866</ele>
        <time>2019-06-04T00:11:34Z</time>
      </trkpt>
      <trkpt lat="44.66648" lon="5.82567">
        <ele>1905</ele>
        <time>2019-06-04T00:12:47Z</time>
      </trkpt>
      <trkpt lat="44.66565" lon="5.82637">
        <ele>1947</ele>
        <time>2019-06-04T00:14:05Z</time>
      </trkpt>
      <trkpt lat="44.66527" lon="5.82679">
        <ele>1952</ele>
        <time>2019-06-04T00:14:43Z</time>
      </trkpt>
      <trkpt lat="44.66666" lon="5.82818">
        <ele>1939</ele>
        <time>2019-06-04T00:17:00Z</time>
      </trkpt>
      <trkpt lat="44.66689" lon="5.8293">
        <ele>1910</ele>
        <time>2019-06-04T00:18:06Z</time>
      </trkpt>
      <trkpt lat="44.66695" lon="5.82989">
        <ele>1901</ele>
        <time>2019-06-04T00:18:40Z</time>
      </trkpt>
      <trkpt lat="44.6673" lon="5.83052">
        <ele>1897</ele>
        <time>2019-06-04T00:19:26Z</time>
      </trkpt>
      <trkpt lat="44.6682" lon="5.83257">
        <ele>1855</ele>
        <time>2019-06-04T00:21:43Z</time>
      </trkpt>
      <trkpt lat="44.66888" lon="5.83334">
        <ele>1817</ele>
        <time>2019-06-04T00:22:53Z</time>
      </trkpt>
      <trkpt lat="44.66891" lon="5.83463">
        <ele>1772</ele>
        <time>2019-06-04T00:24:06Z</time>
      </trkpt>
      <trkpt lat="44.66803" lon="5.83566">
        <ele>1734</ele>
        <time>2019-06-04T00:25:38Z</time>
      </trkpt>
      <trkpt lat="44.66719" lon="5.8363">
        <ele>1712</ele>
        <time>2019-06-04T00:26:55Z</time>
      </trkpt>
      <trkpt lat="44.66673" lon="5.83736">
        <ele>1697</ele>
        <time>2019-06-04T00:28:05Z</time>
      </trkpt>
      <trkpt lat="44.66679" lon="5.83847">
        <ele>1682</ele>
        <time>2019-06-04T00:29:09Z</time>
      </trkpt>
      <trkpt lat="44.66702" lon="5.83914">
        <ele>1672</ele>
        <time>2019-06-04T00:29:51Z</time>
      </trkpt>
      <trkpt lat="44.66691" lon="5.83993">
        <ele>1656</ele>
        <time>2019-06-04T00:30:37Z</time>
      </trkpt>
      <trkpt lat="44.66562" lon="5.84025">
        <ele>1647</ele>
        <time>2019-06-04T00:32:22Z</time>
      </trkpt>
      <trkpt lat="44.66499" lon="5.84083">
        <ele>1635</ele>
        <time>2019-06-04T00:33:22Z</time>
      </trkpt>
      <trkpt lat="44.66467" lon="5.84188">
        <ele>1617</ele>
        <time>2019-06-04T00:34:27Z</time>
      </trkpt>
      <trkpt lat="44.66461" lon="5.84242">
        <ele>1607</ele>
        <time>2019-06-04T00:34:58Z</time>
      </trkpt>
      <trkpt lat="44.6654" lon="5.84266">
        <ele>1596</ele>
        <time>2019-06-04T00:36:03Z</time>
      </trkpt>
      <trkpt lat="44.66424" lon="5.84433">
        <ele>1562</ele>
        <time>2019-06-04T00:38:16Z</time>
      </trkpt>
      <trkpt lat="44.66351" lon="5.8453">
        <ele>1547</ele>
        <time>2019-06-04T00:39:36Z</time>
      </trkpt>
      <trkpt lat="44.66498" lon="5.84785">
        <ele>1499</ele>
        <time>2019-06-04T00:42:43Z</time>
      </trkpt>
      <trkpt lat="44.66554" lon="5.84776">
        <ele>1494</ele>
        <time>2019-06-04T00:43:28Z</time>
      </trkpt>
      <trkpt lat="44.66531" lon="5.84896">
        <ele>1488</ele>
        <time>2019-06-04T00:44:39Z</time>
      </trkpt>
      <trkpt lat="44.66409" lon="5.84972">
        <ele>1481</ele>
        <time>2019-06-04T00:46:26Z</time>
      </trkpt>
      <trkpt lat="44.66262" lon="5.84999">
        <ele>1475</ele>
        <time>2019-06-04T00:48:25Z</time>
      </trkpt>
      <trkpt lat="44.66198" lon="5.85255">
        <ele>1449</ele>
        <time>2019-06-04T00:50:59Z</time>
      </trkpt>
      <trkpt lat="44.66072" lon="5.85277">
        <ele>1442</ele>
        <time>2019-06-04T00:52:41Z</time>
      </trkpt>
      <trkpt lat="44.66023" lon="5.85187">
        <ele>1451</ele>
        <time>2019-06-04T00:53:45Z</time>
      </trkpt>
      <trkpt lat="44.65913" lon="5.85158">
        <ele>1453</ele>
        <time>2019-06-04T00:55:15Z</time>
      </trkpt>
      <trkpt lat="44.65869" lon="5.85096">
        <ele>1458</ele>
        <time>2019-06-04T00:56:05Z</time>
      </trkpt>
      <trkpt lat="44.65803" lon="5.85086">
        <ele>1457</ele>
        <time>2019-06-04T00:56:58Z</time>
      </trkpt>
      <trkpt lat="44.65779" lon="5.85003">
        <ele>1468</ele>
        <time>2019-06-04T00:57:49Z</time>
      </trkpt>
      <trkpt lat="44.65661" lon="5.84945">
        <ele>1494</ele>
        <time>2019-06-04T00:59:29Z</time>
      </trkpt>
      <trkpt lat="44.65497" lon="5.8501">
        <ele>1481</ele>
        <time>2019-06-04T01:01:46Z</time>
      </trkpt>
      <trkpt lat="44.65166" lon="5.84916">
        <ele>1519</ele>
        <time>2019-06-04T01:06:16Z</time>
      </trkpt>
      <trkpt lat="44.64981" lon="5.84819">
        <ele>1535</ele>
        <time>2019-06-04T01:08:54Z</time>
      </trkpt>
      <trkpt lat="44.64778" lon="5.84606">
        <ele>1570</ele>
        <time>2019-06-04T01:12:17Z</time>
      </trkpt>
      <trkpt lat="44.64701" lon="5.84562">
        <ele>1566</ele>
        <time>2019-06-04T01:13:23Z</time>
      </trkpt>
      <trkpt lat="44.64683" lon="5.8436">
        <ele>1548</ele>
        <time>2019-06-04T01:15:19Z</time>
      </trkpt>
      <trkpt lat="44.64712" lon="5.84252">
        <ele>1538</ele>
        <time>2019-06-04T01:16:25Z</time>
      </trkpt>
      <trkpt lat="44.64631" lon="5.84358">
        <ele>1526</ele>
        <time>2019-06-04T01:17:54Z</time>
      </trkpt>
      <trkpt lat="44.64503" lon="5.84497">
        <ele>1501</ele>
        <time>2019-06-04T01:20:03Z</time>
      </trkpt>
      <trkpt lat="44.64406" lon="5.84358">
        <ele>1456</ele>
        <time>2019-06-04T01:21:54Z</time>
      </trkpt>
      <trkpt lat="44.64368" lon="5.84369">
        <ele>1447</ele>
        <time>2019-06-04T01:22:25Z</time>
      </trkpt>
      <trkpt lat="44.64359" lon="5.84313">
        <ele>1438</ele>
        <time>2019-06-04T01:22:58Z</time>
      </trkpt>
      <trkpt lat="44.64332" lon="5.84347">
        <ele>1435</ele>
        <time>2019-06-04T01:23:27Z</time>
      </trkpt>
      <trkpt lat="44.64319" lon="5.84251">
        <ele>1413</ele>
        <time>2019-06-04T01:24:23Z</time>
      </trkpt>
      <trkpt lat="44.64293" lon="5.84253">
        <ele>1402</ele>
        <time>2019-06-04T01:24:43Z</time>
      </trkpt>
      <trkpt lat="44.64225" lon="5.84403">
        <ele>1388</ele>
        <time>2019-06-04T01:26:25Z</time>
      </trkpt>
      <trkpt lat="44.64235" lon="5.84469">
        <ele>1387</ele>
        <time>2019-06-04T01:27:03Z</time>
      </trkpt>
      <trkpt lat="44.64226" lon="5.84557">
        <ele>1384</ele>
        <time>2019-06-04T01:27:54Z</time>
      </trkpt>
      <trkpt lat="44.6418" lon="5.84577">
        <ele>1359</ele>
        <time>2019-06-04T01:28:32Z</time>
      </trkpt>
      <trkpt lat="44.64154" lon="5.84712">
        <ele>1360</ele>
        <time>2019-06-04T01:29:52Z</time>
      </trkpt>
      <trkpt lat="44.64118" lon="5.84622">
        <ele>1325</ele>
        <time>2019-06-04T01:30:51Z</time>
      </trkpt>
      <trkpt lat="44.6408" lon="5.84613">
        <ele>1299</ele>
        <time>2019-06-04T01:31:22Z</time>
      </trkpt>
      <trkpt lat="44.64095" lon="5.84671">
        <ele>1315</ele>
        <time>2019-06-04T01:31:57Z</time>
      </trkpt>
      <trkpt lat="44.64073" lon="5.84748">
        <ele>1305</ele>
        <time>2019-06-04T01:32:44Z</time>
      </trkpt>
      <trkpt lat="44.64038" lon="5.8468">
        <ele>1280</ele>
        <time>2019-06-04T01:33:32Z</time>
      </trkpt>
      <trkpt lat="44.64026" lon="5.84776">
        <ele>1275</ele>
        <time>2019-06-04T01:34:28Z</time>
      </trkpt>
      <trkpt lat="44.63964" lon="5.84714">
        <ele>1242</ele>
        <time>2019-06-04T01:35:29Z</time>
      </trkpt>
      <trkpt lat="44.63928" lon="5.8476">
        <ele>1230</ele>
        <time>2019-06-04T01:36:07Z</time>
      </trkpt>
      <trkpt lat="44.6397" lon="5.84849">
        <ele>1246</ele>
        <time>2019-06-04T01:37:08Z</time>
      </trkpt>
      <trkpt lat="44.63999" lon="5.8493">
        <ele>1247</ele>
        <time>2019-06-04T01:38:00Z</time>
      </trkpt>
      <trkpt lat="44.64041" lon="5.84978">
        <ele>1254</ele>
        <time>2019-06-04T01:38:43Z</time>
      </trkpt>
      <trkpt lat="44.64032" lon="5.85016">
        <ele>1252</ele>
        <time>2019-06-04T01:39:06Z</time>
      </trkpt>
      <trkpt lat="44.64078" lon="5.85034">
        <ele>1254</ele>
        <time>2019-06-04T01:39:44Z</time>
      </trkpt>
      <trkpt lat="44.64089" lon="5.85077">
        <ele>1257</ele>
        <time>2019-06-04T01:40:10Z</time>
      </trkpt>
      <trkpt lat="44.64057" lon="5.85064">
        <ele>1260</ele>
        <time>2019-06-04T01:40:37Z</time>
      </trkpt>
      <trkpt lat="44.64065" lon="5.8512">
        <ele>1268</ele>
        <time>2019-06-04T01:41:10Z</time>
      </trkpt>
      <trkpt lat="44.63972" lon="5.85307">
        <ele>1321</ele>
        <time>2019-06-04T01:43:20Z</time>
      </trkpt>
      <trkpt lat="44.63925" lon="5.85411">
        <ele>1334</ele>
        <time>2019-06-04T01:44:30Z</time>
      </trkpt>
      <trkpt lat="44.63831" lon="5.85469">
        <ele>1333</ele>
        <time>2019-06-04T01:45:52Z</time>
      </trkpt>
      <trkpt lat="44.63757" lon="5.8554">
        <ele>1340</ele>
        <time>2019-06-04T01:47:04Z</time>
      </trkpt>
      <trkpt lat="44.63696" lon="5.85547">
        <ele>1349</ele>
        <time>2019-06-04T01:47:53Z</time>
      </trkpt>
      <trkpt lat="44.63695" lon="5.85598">
        <ele>1356</ele>
        <time>2019-06-04T01:48:22Z</time>
      </trkpt>
      <trkpt lat="44.63632" lon="5.85667">
        <ele>1370</ele>
        <time>2019-06-04T01:49:26Z</time>
      </trkpt>
      <trkpt lat="44.63599" lon="5.85729">
        <ele>1378</ele>
        <time>2019-06-04T01:50:10Z</time>
      </trkpt>
      <trkpt lat="44.63512" lon="5.85838">
        <ele>1392</ele>
        <time>2019-06-04T01:51:43Z</time>
      </trkpt>
      <trkpt lat="44.63522" lon="5.85903">
        <ele>1396</ele>
        <time>2019-06-04T01:52:21Z</time>
      </trkpt>
      <trkpt lat="44.63594" lon="5.85901">
        <ele>1396</ele>
        <time>2019-06-04T01:53:19Z</time>
      </trkpt>
      <trkpt lat="44.63643" lon="5.85933">
        <ele>1398</ele>
        <time>2019-06-04T01:54:02Z</time>
      </trkpt>
      <trkpt lat="44.63657" lon="5.86008">
        <ele>1407</ele>
        <time>2019-06-04T01:54:46Z</time>
      </trkpt>
      <trkpt lat="44.63725" lon="5.86036">
        <ele>1406</ele>
        <time>2019-06-04T01:55:43Z</time>
      </trkpt>
      <trkpt lat="44.63762" lon="5.86122">
        <ele>1427</ele>
        <time>2019-06-04T01:56:40Z</time>
      </trkpt>
      <trkpt lat="44.63889" lon="5.85924">
        <ele>1424</ele>
        <time>2019-06-04T01:59:12Z</time>
      </trkpt>
      <trkpt lat="44.63948" lon="5.85798">
        <ele>1422</ele>
        <time>2019-06-04T02:00:38Z</time>
      </trkpt>
      <trkpt lat="44.64" lon="5.85759">
        <ele>1434</ele>
        <time>2019-06-04T02:01:25Z</time>
      </trkpt>
      <trkpt lat="44.64049" lon="5.85802">
        <ele>1436</ele>
        <time>2019-06-04T02:02:11Z</time>
      </trkpt>
      <trkpt lat="44.64073" lon="5.85954">
        <ele>1459</ele>
        <time>2019-06-04T02:03:40Z</time>
      </trkpt>
      <trkpt lat="44.64121" lon="5.86019">
        <ele>1466</ele>
        <time>2019-06-04T02:04:33Z</time>
      </trkpt>
      <trkpt lat="44.64148" lon="5.86004">
        <ele>1462</ele>
        <time>2019-06-04T02:04:57Z</time>
      </trkpt>
      <trkpt lat="44.64171" lon="5.86034">
        <ele>1465</ele>
        <time>2019-06-04T02:05:22Z</time>
      </trkpt>
      <trkpt lat="44.64197" lon="5.86006">
        <ele>1465</ele>
        <time>2019-06-04T02:05:48Z</time>
      </trkpt>
      <trkpt lat="44.64263" lon="5.86027">
        <ele>1478</ele>
        <time>2019-06-04T02:06:42Z</time>
      </trkpt>
      <trkpt lat="44.64313" lon="5.85926">
        <ele>1477</ele>
        <time>2019-06-04T02:07:52Z</time>
      </trkpt>
      <trkpt lat="44.64388" lon="5.85877">
        <ele>1478</ele>
        <time>2019-06-04T02:08:59Z</time>
      </trkpt>
      <trkpt lat="44.64472" lon="5.85944">
        <ele>1489</ele>
        <time>2019-06-04T02:10:16Z</time>
      </trkpt>
      <trkpt lat="44.64542" lon="5.8607">
        <ele>1505</ele>
        <time>2019-06-04T02:11:47Z</time>
      </trkpt>
      <trkpt lat="44.64611" lon="5.86092">
        <ele>1505</ele>
        <time>2019-06-04T02:12:44Z</time>
      </trkpt>
      <trkpt lat="44.64672" lon="5.85909">
        <ele>1467</ele>
        <time>2019-06-04T02:14:39Z</time>
      </trkpt>
      <trkpt lat="44.64893" lon="5.85888">
        <ele>1456</ele>
        <time>2019-06-04T02:17:36Z</time>
      </trkpt>
      <trkpt lat="44.65054" lon="5.85905">
        <ele>1445</ele>
        <time>2019-06-04T02:19:45Z</time>
      </trkpt>
      <trkpt lat="44.65208" lon="5.85873">
        <ele>1429</ele>
        <time>2019-06-04T02:21:50Z</time>
      </trkpt>
      <trkpt lat="44.65267" lon="5.85894">
        <ele>1430</ele>
        <time>2019-06-04T02:22:39Z</time>
      </trkpt>
      <trkpt lat="44.65325" lon="5.85937">
        <ele>1429</ele>
        <time>2019-06-04T02:23:31Z</time>
      </trkpt>
      <trkpt lat="44.65576" lon="5.85804">
        <ele>1394</ele>
        <time>2019-06-04T02:27:06Z</time>
      </trkpt>
      <trkpt lat="44.65708" lon="5.85888">
        <ele>1400</ele>
        <time>2019-06-04T02:29:02Z</time>
      </trkpt>
      <trkpt lat="44.6584" lon="5.85892">
        <ele>1407</ele>
        <time>2019-06-04T02:30:48Z</time>
      </trkpt>
      <trkpt lat="44.65937" lon="5.85864">
        <ele>1414</ele>
        <time>2019-06-04T02:32:07Z</time>
      </trkpt>
      <trkpt lat="44.66084" lon="5.85952">
        <ele>1427</ele>
        <time>2019-06-04T02:34:15Z</time>
      </trkpt>
      <trkpt lat="44.66232" lon="5.86138">
        <ele>1439</ele>
        <time>2019-06-04T02:36:54Z</time>
      </trkpt>
      <trkpt lat="44.66326" lon="5.86305">
        <ele>1445</ele>
        <time>2019-06-04T02:38:55Z</time>
      </trkpt>
      <trkpt lat="44.66393" lon="5.86518">
        <ele>1463</ele>
        <time>2019-06-04T02:41:08Z</time>
      </trkpt>
      <trkpt lat="44.66408" lon="5.86616">
        <ele>1460</ele>
        <time>2019-06-04T02:42:05Z</time>
      </trkpt>
      <trkpt lat="44.66609" lon="5.86897">
        <ele>1462</ele>
        <time>2019-06-04T02:45:52Z</time>
      </trkpt>
      <trkpt lat="44.66673" lon="5.87085">
        <ele>1469</ele>
        <time>2019-06-04T02:47:51Z</time>
      </trkpt>
      <trkpt lat="44.6687" lon="5.87103">
        <ele>1474</ele>
        <time>2019-06-04T02:50:29Z</time>
      </trkpt>
      <trkpt lat="44.6696" lon="5.87291">
        <ele>1490</ele>
        <time>2019-06-04T02:52:38Z</time>
      </trkpt>
      <trkpt lat="44.67004" lon="5.87482">
        <ele>1514</ele>
        <time>2019-06-04T02:54:32Z</time>
      </trkpt>
      <trkpt lat="44.67112" lon="5.87572">
        <ele>1526</ele>
        <time>2019-06-04T02:56:13Z</time>
      </trkpt>
      <trkpt lat="44.67296" lon="5.87752">
        <ele>1544</ele>
        <time>2019-06-04T02:59:12Z</time>
      </trkpt>
      <trkpt lat="44.6742" lon="5.87864">
        <ele>1548</ele>
        <time>2019-06-04T03:01:10Z</time>
      </trkpt>
      <trkpt lat="44.67476" lon="5.87991">
        <ele>1561</ele>
        <time>2019-06-04T03:02:35Z</time>
      </trkpt>
      <trkpt lat="44.67481" lon="5.88142">
        <ele>1587</ele>
        <time>2019-06-04T03:04:01Z</time>
      </trkpt>
      <trkpt lat="44.67589" lon="5.88243">
        <ele>1593</ele>
        <time>2019-06-04T03:05:45Z</time>
      </trkpt>
      <trkpt lat="44.67748" lon="5.88254">
        <ele>1593</ele>
        <time>2019-06-04T03:07:52Z</time>
      </trkpt>
      <trkpt lat="44.6781" lon="5.88388">
        <ele>1618</ele>
        <time>2019-06-04T03:09:23Z</time>
      </trkpt>
      <trkpt lat="44.67917" lon="5.8851">
        <ele>1620</ele>
        <time>2019-06-04T03:11:14Z</time>
      </trkpt>
      <trkpt lat="44.67966" lon="5.88651">
        <ele>1618</ele>
        <time>2019-06-04T03:12:43Z</time>
      </trkpt>
      <trkpt lat="44.67902" lon="5.88662">
        <ele>1631</ele>
        <time>2019-06-04T03:13:35Z</time>
      </trkpt>
      <trkpt lat="44.67863" lon="5.88626">
        <ele>1640</ele>
        <time>2019-06-04T03:14:12Z</time>
      </trkpt>
      <trkpt lat="44.67802" lon="5.88655">
        <ele>1650</ele>
        <time>2019-06-04T03:15:04Z</time>
      </trkpt>
      <trkpt lat="44.67779" lon="5.88752">
        <ele>1658</ele>
        <time>2019-06-04T03:16:02Z</time>
      </trkpt>
      <trkpt lat="44.67817" lon="5.88932">
        <ele>1663</ele>
        <time>2019-06-04T03:17:49Z</time>
      </trkpt>
      <trkpt lat="44.6753" lon="5.88608">
        <ele>1711</ele>
        <time>2019-06-04T03:22:43Z</time>
      </trkpt>
      <trkpt lat="44.67358" lon="5.88456">
        <ele>1732</ele>
        <time>2019-06-04T03:25:26Z</time>
      </trkpt>
      <trkpt lat="44.67307" lon="5.8838">
        <ele>1739</ele>
        <time>2019-06-04T03:26:26Z</time>
      </trkpt>
      <trkpt lat="44.67104" lon="5.8837">
        <ele>1798</ele>
        <time>2019-06-04T03:29:08Z</time>
      </trkpt>
      <trkpt lat="44.6704" lon="5.88301">
        <ele>1807</ele>
        <time>2019-06-04T03:30:13Z</time>
      </trkpt>
      <trkpt lat="44.6695" lon="5.88344">
        <ele>1836</ele>
        <time>2019-06-04T03:31:29Z</time>
      </trkpt>
      <trkpt lat="44.66904" lon="5.88416">
        <ele>1859</ele>
        <time>2019-06-04T03:32:24Z</time>
      </trkpt>
      <trkpt lat="44.66955" lon="5.88521">
        <ele>1870</ele>
        <time>2019-06-04T03:33:36Z</time>
      </trkpt>
      <trkpt lat="44.66909" lon="5.88564">
        <ele>1883</ele>
        <time>2019-06-04T03:34:21Z</time>
      </trkpt>
      <trkpt lat="44.66873" lon="5.88564">
        <ele>1894</ele>
        <time>2019-06-04T03:34:49Z</time>
      </trkpt>
      <trkpt lat="44.66842" lon="5.886">
        <ele>1908</ele>
        <time>2019-06-04T03:35:22Z</time>
      </trkpt>
      <trkpt lat="44.66747" lon="5.88525">
        <ele>1930</ele>
        <time>2019-06-04T03:36:49Z</time>
      </trkpt>
      <trkpt lat="44.66698" lon="5.88586">
        <ele>1939</ele>
        <time>2019-06-04T03:37:41Z</time>
      </trkpt>
      <trkpt lat="44.66596" lon="5.88619">
        <ele>1946</ele>
        <time>2019-06-04T03:39:05Z</time>
      </trkpt>
      <trkpt lat="44.66647" lon="5.88734">
        <ele>1955</ele>
        <time>2019-06-04T03:40:22Z</time>
      </trkpt>
      <trkpt lat="44.6658" lon="5.889">
        <ele>1973</ele>
        <time>2019-06-04T03:42:11Z</time>
      </trkpt>
      <trkpt lat="44.66598" lon="5.8907">
        <ele>1963</ele>
        <time>2019-06-04T03:43:49Z</time>
      </trkpt>
      <trkpt lat="44.66521" lon="5.89178">
        <ele>1955</ele>
        <time>2019-06-04T03:45:16Z</time>
      </trkpt>
      <trkpt lat="44.66591" lon="5.89362">
        <ele>1927</ele>
        <time>2019-06-04T03:47:15Z</time>
      </trkpt>
      <trkpt lat="44.66603" lon="5.89521">
        <ele>1903</ele>
        <time>2019-06-04T03:48:46Z</time>
      </trkpt>
      <trkpt lat="44.6665" lon="5.896">
        <ele>1891</ele>
        <time>2019-06-04T03:49:44Z</time>
      </trkpt>
      <trkpt lat="44.66701" lon="5.89867">
        <ele>1884</ele>
        <time>2019-06-04T03:52:22Z</time>
      </trkpt>
      <trkpt lat="44.66701" lon="5.89943">
        <ele>1877</ele>
        <time>2019-06-04T03:53:05Z</time>
      </trkpt>
      <trkpt lat="44.66793" lon="5.89947">
        <ele>1867</ele>
        <time>2019-06-04T03:54:19Z</time>
      </trkpt>
      <trkpt lat="44.66814" lon="5.90159">
        <ele>1854</ele>
        <time>2019-06-04T03:56:21Z</time>
      </trkpt>
      <trkpt lat="44.66788" lon="5.90206">
        <ele>1858</ele>
        <time>2019-06-04T03:56:55Z</time>
      </trkpt>
      <trkpt lat="44.66991" lon="5.90387">
        <ele>1844</ele>
        <time>2019-06-04T04:00:07Z</time>
      </trkpt>
      <trkpt lat="44.67091" lon="5.90535">
        <ele>1844</ele>
        <time>2019-06-04T04:02:03Z</time>
      </trkpt>
      <trkpt lat="44.67088" lon="5.90621">
        <ele>1842</ele>
        <time>2019-06-04T04:02:52Z</time>
      </trkpt>
      <trkpt lat="44.67088" lon="5.90759">
        <ele>1831</ele>
        <time>2019-06-04T04:04:11Z</time>
      </trkpt>
      <trkpt lat="44.67035" lon="5.90881">
        <ele>1820</ele>
        <time>2019-06-04T04:05:32Z</time>
      </trkpt>
      <trkpt lat="44.67053" lon="5.90982">
        <ele>1809</ele>
        <time>2019-06-04T04:06:32Z</time>
      </trkpt>
      <trkpt lat="44.67124" lon="5.91091">
        <ele>1796</ele>
        <time>2019-06-04T04:07:56Z</time>
      </trkpt>
      <trkpt lat="44.67065" lon="5.91137">
        <ele>1794</ele>
        <time>2019-06-04T04:08:50Z</time>
      </trkpt>
      <trkpt lat="44.67029" lon="5.91224">
        <ele>1783</ele>
        <time>2019-06-04T04:09:47Z</time>
      </trkpt>
      <trkpt lat="44.6705" lon="5.91343">
        <ele>1763</ele>
        <time>2019-06-04T04:10:57Z</time>
      </trkpt>
      <trkpt lat="44.67081" lon="5.91401">
        <ele>1750</ele>
        <time>2019-06-04T04:11:38Z</time>
      </trkpt>
      <trkpt lat="44.67027" lon="5.91437">
        <ele>1748</ele>
        <time>2019-06-04T04:12:26Z</time>
      </trkpt>
      <trkpt lat="44.66999" lon="5.91617">
        <ele>1720</ele>
        <time>2019-06-04T04:14:11Z</time>
      </trkpt>
      <trkpt lat="44.67032" lon="5.91744">
        <ele>1693</ele>
        <time>2019-06-04T04:15:28Z</time>
      </trkpt>
      <trkpt lat="44.66986" lon="5.9187">
        <ele>1682</ele>
        <time>2019-06-04T04:16:49Z</time>
      </trkpt>
      <trkpt lat="44.66917" lon="5.91982">
        <ele>1685</ele>
        <time>2019-06-04T04:18:13Z</time>
      </trkpt>
      <trkpt lat="44.66834" lon="5.92036">
        <ele>1685</ele>
        <time>2019-06-04T04:19:26Z</time>
      </trkpt>
      <trkpt lat="44.66814" lon="5.92126">
        <ele>1673</ele>
        <time>2019-06-04T04:20:20Z</time>
      </trkpt>
      <trkpt lat="44.66773" lon="5.92101">
        <ele>1677</ele>
        <time>2019-06-04T04:20:56Z</time>
      </trkpt>
      <trkpt lat="44.66729" lon="5.92155">
        <ele>1668</ele>
        <time>2019-06-04T04:21:43Z</time>
      </trkpt>
      <trkpt lat="44.66636" lon="5.92132">
        <ele>1670</ele>
        <time>2019-06-04T04:22:58Z</time>
      </trkpt>
      <trkpt lat="44.66623" lon="5.92203">
        <ele>1667</ele>
        <time>2019-06-04T04:23:40Z</time>
      </trkpt>
      <trkpt lat="44.66749" lon="5.92421">
        <ele>1630</ele>
        <time>2019-06-04T04:26:20Z</time>
      </trkpt>
      <trkpt lat="44.66792" lon="5.92544">
        <ele>1618</ele>
        <time>2019-06-04T04:27:38Z</time>
      </trkpt>
      <trkpt lat="44.66791" lon="5.92633">
        <ele>1618</ele>
        <time>2019-06-04T04:28:29Z</time>
      </trkpt>
      <trkpt lat="44.66795" lon="5.92722">
        <ele>1615</ele>
        <time>2019-06-04T04:29:19Z</time>
      </trkpt>
      <trkpt lat="44.66782" lon="5.92725">
        <ele>1619</ele>
        <time>2019-06-04T04:29:30Z</time>
      </trkpt>
      <trkpt lat="44.66764" lon="5.92752">
        <ele>1623</ele>
        <time>2019-06-04T04:29:51Z</time>
      </trkpt>
      <trkpt lat="44.66747" lon="5.92788">
        <ele>1622</ele>
        <time>2019-06-04T04:30:16Z</time>
      </trkpt>
      <trkpt lat="44.66684" lon="5.92808">
        <ele>1628</ele>
        <time>2019-06-04T04:31:07Z</time>
      </trkpt>
      <trkpt lat="44.66618" lon="5.92812">
        <ele>1633</ele>
        <time>2019-06-04T04:32:00Z</time>
      </trkpt>
      <trkpt lat="44.66559" lon="5.92831">
        <ele>1631</ele>
        <time>2019-06-04T04:32:49Z</time>
      </trkpt>
      <trkpt lat="44.66522" lon="5.92855">
        <ele>1627</ele>
        <time>2019-06-04T04:33:21Z</time>
      </trkpt>
      <trkpt lat="44.66523" lon="5.92934">
        <ele>1618</ele>
        <time>2019-06-04T04:34:06Z</time>
      </trkpt>
      <trkpt lat="44.66518" lon="5.92972">
        <ele>1612</ele>
        <time>2019-06-04T04:34:28Z</time>
      </trkpt>
      <trkpt lat="44.66517" lon="5.93033">
        <ele>1602</ele>
        <time>2019-06-04T04:35:03Z</time>
      </trkpt>
      <trkpt lat="44.66491" lon="5.93143">
        <ele>1591</ele>
        <time>2019-06-04T04:36:09Z</time>
      </trkpt>
      <trkpt lat="44.66528" lon="5.93163">
        <ele>1587</ele>
        <time>2019-06-04T04:36:41Z</time>
      </trkpt>
      <trkpt lat="44.66541" lon="5.93198">
        <ele>1582</ele>
        <time>2019-06-04T04:37:03Z</time>
      </trkpt>
      <trkpt lat="44.66533" lon="5.93223">
        <ele>1580</ele>
        <time>2019-06-04T04:37:19Z</time>
      </trkpt>
      <trkpt lat="44.66517" lon="5.93236">
        <ele>1580</ele>
        <time>2019-06-04T04:37:34Z</time>
      </trkpt>
      <trkpt lat="44.66504" lon="5.93273">
        <ele>1576</ele>
        <time>2019-06-04T04:37:57Z</time>
      </trkpt>
      <trkpt lat="44.66485" lon="5.93303">
        <ele>1573</ele>
        <time>2019-06-04T04:38:20Z</time>
      </trkpt>
      <trkpt lat="44.6647" lon="5.93315">
        <ele>1572</ele>
        <time>2019-06-04T04:38:34Z</time>
      </trkpt>
      <trkpt lat="44.66446" lon="5.9332">
        <ele>1572</ele>
        <time>2019-06-04T04:38:53Z</time>
      </trkpt>
      <trkpt lat="44.66437" lon="5.93331">
        <ele>1571</ele>
        <time>2019-06-04T04:39:03Z</time>
      </trkpt>
      <trkpt lat="44.66426" lon="5.9336">
        <ele>1568</ele>
        <time>2019-06-04T04:39:22Z</time>
      </trkpt>
      <trkpt lat="44.66414" lon="5.93374">
        <ele>1567</ele>
        <time>2019-06-04T04:39:34Z</time>
      </trkpt>
      <trkpt lat="44.66379" lon="5.93381">
        <ele>1571</ele>
        <time>2019-06-04T04:40:02Z</time>
      </trkpt>
      <trkpt lat="44.66383" lon="5.93405">
        <ele>1568</ele>
        <time>2019-06-04T04:40:16Z</time>
      </trkpt>
      <trkpt lat="44.66378" lon="5.9344">
        <ele>1564</ele>
        <time>2019-06-04T04:40:37Z</time>
      </trkpt>
      <trkpt lat="44.66378" lon="5.9347">
        <ele>1561</ele>
        <time>2019-06-04T04:40:54Z</time>
      </trkpt>
      <trkpt lat="44.66365" lon="5.93505">
        <ele>1559</ele>
        <time>2019-06-04T04:41:16Z</time>
      </trkpt>
      <trkpt lat="44.6635" lon="5.93533">
        <ele>1561</ele>
        <time>2019-06-04T04:41:36Z</time>
      </trkpt>
      <trkpt lat="44.66309" lon="5.93532">
        <ele>1563</ele>
        <time>2019-06-04T04:42:09Z</time>
      </trkpt>
      <trkpt lat="44.66246" lon="5.93543">
        <ele>1562</ele>
        <time>2019-06-04T04:43:00Z</time>
      </trkpt>
      <trkpt lat="44.66225" lon="5.93538">
        <ele>1559</ele>
        <time>2019-06-04T04:43:17Z</time>
      </trkpt>
      <trkpt lat="44.66204" lon="5.93521">
        <ele>1560</ele>
        <time>2019-06-04T04:43:36Z</time>
      </trkpt>
      <trkpt lat="44.6615" lon="5.93513">
        <ele>1557</ele>
        <time>2019-06-04T04:44:20Z</time>
      </trkpt>
      <trkpt lat="44.66124" lon="5.93497">
        <ele>1558</ele>
        <time>2019-06-04T04:44:43Z</time>
      </trkpt>
      <trkpt lat="44.66083" lon="5.93502">
        <ele>1551</ele>
        <time>2019-06-04T04:45:16Z</time>
      </trkpt>
      <trkpt lat="44.66051" lon="5.93503">
        <ele>1548</ele>
        <time>2019-06-04T04:45:41Z</time>
      </trkpt>
      <trkpt lat="44.66016" lon="5.93515">
        <ele>1541</ele>
        <time>2019-06-04T04:46:10Z</time>
      </trkpt>
      <trkpt lat="44.65988" lon="5.93518">
        <ele>1537</ele>
        <time>2019-06-04T04:46:32Z</time>
      </trkpt>
      <trkpt lat="44.65962" lon="5.93507">
        <ele>1539</ele>
        <time>2019-06-04T04:46:54Z</time>
      </trkpt>
      <trkpt lat="44.6592" lon="5.93494">
        <ele>1541</ele>
        <time>2019-06-04T04:47:29Z</time>
      </trkpt>
      <trkpt lat="44.65859" lon="5.93491">
        <ele>1542</ele>
        <time>2019-06-04T04:48:18Z</time>
      </trkpt>
      <trkpt lat="44.65794" lon="5.93507">
        <ele>1538</ele>
        <time>2019-06-04T04:49:10Z</time>
      </trkpt>
      <trkpt lat="44.65744" lon="5.93506">
        <ele>1541</ele>
        <time>2019-06-04T04:49:50Z</time>
      </trkpt>
      <trkpt lat="44.65725" lon="5.9348">
        <ele>1548</ele>
        <time>2019-06-04T04:50:12Z</time>
      </trkpt>
      <trkpt lat="44.65686" lon="5.93383">
        <ele>1560</ele>
        <time>2019-06-04T04:51:15Z</time>
      </trkpt>
      <trkpt lat="44.65676" lon="5.93437">
        <ele>1560</ele>
        <time>2019-06-04T04:51:47Z</time>
      </trkpt>
      <trkpt lat="44.65655" lon="5.93442">
        <ele>1567</ele>
        <time>2019-06-04T04:52:04Z</time>
      </trkpt>
      <trkpt lat="44.65611" lon="5.93406">
        <ele>1585</ele>
        <time>2019-06-04T04:52:45Z</time>
      </trkpt>
      <trkpt lat="44.6556" lon="5.93372">
        <ele>1602</ele>
        <time>2019-06-04T04:53:30Z</time>
      </trkpt>
      <trkpt lat="44.65488" lon="5.934">
        <ele>1631</ele>
        <time>2019-06-04T04:54:30Z</time>
      </trkpt>
      <trkpt lat="44.65466" lon="5.93443">
        <ele>1638</ele>
        <time>2019-06-04T04:55:00Z</time>
      </trkpt>
      <trkpt lat="44.65428" lon="5.9342">
        <ele>1654</ele>
        <time>2019-06-04T04:55:33Z</time>
      </trkpt>
      <trkpt lat="44.65424" lon="5.93384">
        <ele>1655</ele>
        <time>2019-06-04T04:55:54Z</time>
      </trkpt>
      <trkpt lat="44.65344" lon="5.93448">
        <ele>1673</ele>
        <time>2019-06-04T04:57:07Z</time>
      </trkpt>
      <trkpt lat="44.65235" lon="5.93451">
        <ele>1694</ele>
        <time>2019-06-04T04:58:35Z</time>
      </trkpt>
      <trkpt lat="44.65134" lon="5.93458">
        <ele>1707</ele>
        <time>2019-06-04T04:59:56Z</time>
      </trkpt>
      <trkpt lat="44.65037" lon="5.93474">
        <ele>1722</ele>
        <time>2019-06-04T05:01:14Z</time>
      </trkpt>
      <trkpt lat="44.64972" lon="5.93634">
        <ele>1712</ele>
        <time>2019-06-04T05:02:59Z</time>
      </trkpt>
      <trkpt lat="44.64923" lon="5.93782">
        <ele>1719</ele>
        <time>2019-06-04T05:04:32Z</time>
      </trkpt>
      <trkpt lat="44.64863" lon="5.93943">
        <ele>1737</ele>
        <time>2019-06-04T05:06:15Z</time>
      </trkpt>
      <trkpt lat="44.64783" lon="5.9405">
        <ele>1762</ele>
        <time>2019-06-04T05:07:44Z</time>
      </trkpt>
      <trkpt lat="44.64709" lon="5.94119">
        <ele>1773</ele>
        <time>2019-06-04T05:08:55Z</time>
      </trkpt>
      <trkpt lat="44.64751" lon="5.94155">
        <ele>1770</ele>
        <time>2019-06-04T05:09:34Z</time>
      </trkpt>
      <trkpt lat="44.64813" lon="5.9414">
        <ele>1765</ele>
        <time>2019-06-04T05:10:25Z</time>
      </trkpt>
      <trkpt lat="44.64819" lon="5.94194">
        <ele>1766</ele>
        <time>2019-06-04T05:10:56Z</time>
      </trkpt>
      <trkpt lat="44.64846" lon="5.94224">
        <ele>1760</ele>
        <time>2019-06-04T05:11:23Z</time>
      </trkpt>
      <trkpt lat="44.64875" lon="5.94363">
        <ele>1745</ele>
        <time>2019-06-04T05:12:46Z</time>
      </trkpt>
      <trkpt lat="44.64885" lon="5.94425">
        <ele>1740</ele>
        <time>2019-06-04T05:13:22Z</time>
      </trkpt>
      <trkpt lat="44.64897" lon="5.94426">
        <ele>1736</ele>
        <time>2019-06-04T05:13:32Z</time>
      </trkpt>
      <trkpt lat="44.64901" lon="5.94372">
        <ele>1737</ele>
        <time>2019-06-04T05:14:03Z</time>
      </trkpt>
      <trkpt lat="44.64917" lon="5.94332">
        <ele>1732</ele>
        <time>2019-06-04T05:14:29Z</time>
      </trkpt>
      <trkpt lat="44.64954" lon="5.94343">
        <ele>1720</ele>
        <time>2019-06-04T05:14:59Z</time>
      </trkpt>
      <trkpt lat="44.6495" lon="5.94384">
        <ele>1721</ele>
        <time>2019-06-04T05:15:23Z</time>
      </trkpt>
      <trkpt lat="44.65012" lon="5.94622">
        <ele>1705</ele>
        <time>2019-06-04T05:17:47Z</time>
      </trkpt>
      <trkpt lat="44.65047" lon="5.94594">
        <ele>1693</ele>
        <time>2019-06-04T05:18:19Z</time>
      </trkpt>
      <trkpt lat="44.65079" lon="5.94706">
        <ele>1691</ele>
        <time>2019-06-04T05:19:28Z</time>
      </trkpt>
      <trkpt lat="44.65108" lon="5.94668">
        <ele>1679</ele>
        <time>2019-06-04T05:20:00Z</time>
      </trkpt>
      <trkpt lat="44.65135" lon="5.94767">
        <ele>1679</ele>
        <time>2019-06-04T05:21:00Z</time>
      </trkpt>
      <trkpt lat="44.6515" lon="5.94573">
        <ele>1660</ele>
        <time>2019-06-04T05:22:51Z</time>
      </trkpt>
      <trkpt lat="44.65206" lon="5.94699">
        <ele>1649</ele>
        <time>2019-06-04T05:24:16Z</time>
      </trkpt>
      <trkpt lat="44.65272" lon="5.94982">
        <ele>1633</ele>
        <time>2019-06-04T05:27:06Z</time>
      </trkpt>
      <trkpt lat="44.65304" lon="5.95275">
        <ele>1656</ele>
        <time>2019-06-04T05:29:54Z</time>
      </trkpt>
      <trkpt lat="44.65375" lon="5.95439">
        <ele>1659</ele>
        <time>2019-06-04T05:31:44Z</time>
      </trkpt>
      <trkpt lat="44.65408" lon="5.95574">
        <ele>1653</ele>
        <time>2019-06-04T05:33:05Z</time>
      </trkpt>
      <trkpt lat="44.65411" lon="5.95668">
        <ele>1650</ele>
        <time>2019-06-04T05:33:59Z</time>
      </trkpt>
      <trkpt lat="44.65371" lon="5.95717">
        <ele>1657</ele>
        <time>2019-06-04T05:34:41Z</time>
      </trkpt>
      <trkpt lat="44.65428" lon="5.95883">
        <ele>1644</ele>
        <time>2019-06-04T05:36:26Z</time>
      </trkpt>
      <trkpt lat="44.65364" lon="5.96278">
        <ele>1656</ele>
        <time>2019-06-04T05:40:17Z</time>
      </trkpt>
      <trkpt lat="44.65442" lon="5.96319">
        <ele>1654</ele>
        <time>2019-06-04T05:41:23Z</time>
      </trkpt>
      <trkpt lat="44.65406" lon="5.96457">
        <ele>1667</ele>
        <time>2019-06-04T05:42:47Z</time>
      </trkpt>
      <trkpt lat="44.65424" lon="5.96495">
        <ele>1667</ele>
        <time>2019-06-04T05:43:13Z</time>
      </trkpt>
      <trkpt lat="44.65419" lon="5.96556">
        <ele>1672</ele>
        <time>2019-06-04T05:43:48Z</time>
      </trkpt>
      <trkpt lat="44.65373" lon="5.96589">
        <ele>1679</ele>
        <time>2019-06-04T05:44:30Z</time>
      </trkpt>
      <trkpt lat="44.65362" lon="5.96704">
        <ele>1686</ele>
        <time>2019-06-04T05:45:36Z</time>
      </trkpt>
      <trkpt lat="44.65309" lon="5.96804">
        <ele>1694</ele>
        <time>2019-06-04T05:46:47Z</time>
      </trkpt>
      <trkpt lat="44.65147" lon="5.96967">
        <ele>1721</ele>
        <time>2019-06-04T05:49:26Z</time>
      </trkpt>
      <trkpt lat="44.65083" lon="5.97006">
        <ele>1734</ele>
        <time>2019-06-04T05:50:22Z</time>
      </trkpt>
      <trkpt lat="44.64954" lon="5.97319">
        <ele>1741</ele>
        <time>2019-06-04T05:53:48Z</time>
      </trkpt>
      <trkpt lat="44.64811" lon="5.97397">
        <ele>1775</ele>
        <time>2019-06-04T05:55:51Z</time>
      </trkpt>
      <trkpt lat="44.64524" lon="5.9768">
        <ele>1837</ele>
        <time>2019-06-04T06:00:32Z</time>
      </trkpt>
      <trkpt lat="44.64435" lon="5.97804">
        <ele>1865</ele>
        <time>2019-06-04T06:02:12Z</time>
      </trkpt>
      <trkpt lat="44.6427" lon="5.97933">
        <ele>1886</ele>
        <time>2019-06-04T06:04:43Z</time>
      </trkpt>
      <trkpt lat="44.6417" lon="5.98109">
        <ele>1887</ele>
        <time>2019-06-04T06:06:51Z</time>
      </trkpt>
      <trkpt lat="44.64411" lon="5.9789">
        <ele>1872</ele>
        <time>2019-06-04T06:10:41Z</time>
      </trkpt>
      <trkpt lat="44.6453" lon="5.97852">
        <ele>1861</ele>
        <time>2019-06-04T06:12:19Z</time>
      </trkpt>
      <trkpt lat="44.64744" lon="5.97757">
        <ele>1833</ele>
        <time>2019-06-04T06:15:19Z</time>
      </trkpt>
      <trkpt lat="44.6493" lon="5.97706">
        <ele>1815</ele>
        <time>2019-06-04T06:17:50Z</time>
      </trkpt>
      <trkpt lat="44.65165" lon="5.97628">
        <ele>1783</ele>
        <time>2019-06-04T06:21:04Z</time>
      </trkpt>
      <trkpt lat="44.65312" lon="5.97555">
        <ele>1766</ele>
        <time>2019-06-04T06:23:08Z</time>
      </trkpt>
      <trkpt lat="44.65492" lon="5.97354">
        <ele>1730</ele>
        <time>2019-06-04T06:26:13Z</time>
      </trkpt>
      <trkpt lat="44.65641" lon="5.97319">
        <ele>1718</ele>
        <time>2019-06-04T06:28:14Z</time>
      </trkpt>
      <trkpt lat="44.65721" lon="5.97229">
        <ele>1702</ele>
        <time>2019-06-04T06:29:36Z</time>
      </trkpt>
      <trkpt lat="44.65934" lon="5.971">
        <ele>1677</ele>
        <time>2019-06-04T06:32:41Z</time>
      </trkpt>
      <trkpt lat="44.66035" lon="5.97058">
        <ele>1658</ele>
        <time>2019-06-04T06:34:06Z</time>
      </trkpt>
      <trkpt lat="44.66117" lon="5.97152">
        <ele>1664</ele>
        <time>2019-06-04T06:35:30Z</time>
      </trkpt>
      <trkpt lat="44.66343" lon="5.97036">
        <ele>1617</ele>
        <time>2019-06-04T06:38:43Z</time>
      </trkpt>
      <trkpt lat="44.66441" lon="5.97139">
        <ele>1629</ele>
        <time>2019-06-04T06:40:21Z</time>
      </trkpt>
      <trkpt lat="44.66444" lon="5.97028">
        <ele>1611</ele>
        <time>2019-06-04T06:41:24Z</time>
      </trkpt>
      <trkpt lat="44.66606" lon="5.97015">
        <ele>1618</ele>
        <time>2019-06-04T06:43:34Z</time>
      </trkpt>
      <trkpt lat="44.66844" lon="5.9677">
        <ele>1590</ele>
        <time>2019-06-04T06:47:30Z</time>
      </trkpt>
      <trkpt lat="44.66881" lon="5.96697">
        <ele>1583</ele>
        <time>2019-06-04T06:48:21Z</time>
      </trkpt>
      <trkpt lat="44.66898" lon="5.96688">
        <ele>1581</ele>
        <time>2019-06-04T06:48:36Z</time>
      </trkpt>
      <trkpt lat="44.66929" lon="5.96556">
        <ele>1562</ele>
        <time>2019-06-04T06:49:55Z</time>
      </trkpt>
      <trkpt lat="44.66992" lon="5.96541">
        <ele>1539</ele>
        <time>2019-06-04T06:50:46Z</time>
      </trkpt>
      <trkpt lat="44.66965" lon="5.96426">
        <ele>1541</ele>
        <time>2019-06-04T06:51:55Z</time>
      </trkpt>
      <trkpt lat="44.67052" lon="5.96378">
        <ele>1510</ele>
        <time>2019-06-04T06:53:10Z</time>
      </trkpt>
      <trkpt lat="44.67107" lon="5.96444">
        <ele>1494</ele>
        <time>2019-06-04T06:54:08Z</time>
      </trkpt>
      <trkpt lat="44.67163" lon="5.96434">
        <ele>1479</ele>
        <time>2019-06-04T06:54:53Z</time>
      </trkpt>
      <trkpt lat="44.67185" lon="5.96505">
        <ele>1472</ele>
        <time>2019-06-04T06:55:37Z</time>
      </trkpt>
      <trkpt lat="44.67263" lon="5.96477">
        <ele>1451</ele>
        <time>2019-06-04T06:56:42Z</time>
      </trkpt>
      <trkpt lat="44.67306" lon="5.96436">
        <ele>1434</ele>
        <time>2019-06-04T06:57:23Z</time>
      </trkpt>
      <trkpt lat="44.67313" lon="5.96523">
        <ele>1439</ele>
        <time>2019-06-04T06:58:13Z</time>
      </trkpt>
      <trkpt lat="44.67371" lon="5.96375">
        <ele>1420</ele>
        <time>2019-06-04T06:59:49Z</time>
      </trkpt>
      <trkpt lat="44.67417" lon="5.96334">
        <ele>1411</ele>
        <time>2019-06-04T07:00:33Z</time>
      </trkpt>
      <trkpt lat="44.67431" lon="5.96232">
        <ele>1404</ele>
        <time>2019-06-04T07:01:32Z</time>
      </trkpt>
      <trkpt lat="44.67584" lon="5.96028">
        <ele>1392</ele>
        <time>2019-06-04T07:04:21Z</time>
      </trkpt>
      <trkpt lat="44.67638" lon="5.96008">
        <ele>1392</ele>
        <time>2019-06-04T07:05:06Z</time>
      </trkpt>
      <trkpt lat="44.67649" lon="5.95949">
        <ele>1387</ele>
        <time>2019-06-04T07:05:40Z</time>
      </trkpt>
      <trkpt lat="44.67773" lon="5.95883">
        <ele>1392</ele>
        <time>2019-06-04T07:07:26Z</time>
      </trkpt>
      <trkpt lat="44.67872" lon="5.95824">
        <ele>1391</ele>
        <time>2019-06-04T07:08:53Z</time>
      </trkpt>
      <trkpt lat="44.67999" lon="5.9576">
        <ele>1389</ele>
        <time>2019-06-04T07:10:41Z</time>
      </trkpt>
      <trkpt lat="44.68072" lon="5.95666">
        <ele>1385</ele>
        <time>2019-06-04T07:12:00Z</time>
      </trkpt>
      <trkpt lat="44.68141" lon="5.95566">
        <ele>1375</ele>
        <time>2019-06-04T07:13:19Z</time>
      </trkpt>
      <trkpt lat="44.68293" lon="5.95495">
        <ele>1377</ele>
        <time>2019-06-04T07:15:27Z</time>
      </trkpt>
      <trkpt lat="44.6834" lon="5.95507">
        <ele>1382</ele>
        <time>2019-06-04T07:16:06Z</time>
      </trkpt>
      <trkpt lat="44.68451" lon="5.95479">
        <ele>1391</ele>
        <time>2019-06-04T07:17:36Z</time>
      </trkpt>
      <trkpt lat="44.685" lon="5.9552">
        <ele>1405</ele>
        <time>2019-06-04T07:18:22Z</time>
      </trkpt>
      <trkpt lat="44.68638" lon="5.95497">
        <ele>1427</ele>
        <time>2019-06-04T07:20:13Z</time>
      </trkpt>
      <trkpt lat="44.68754" lon="5.95444">
        <ele>1440</ele>
        <time>2019-06-04T07:21:50Z</time>
      </trkpt>
      <trkpt lat="44.68894" lon="5.95418">
        <ele>1453</ele>
        <time>2019-06-04T07:23:44Z</time>
      </trkpt>
      <trkpt lat="44.68983" lon="5.95382">
        <ele>1467</ele>
        <time>2019-06-04T07:24:58Z</time>
      </trkpt>
      <trkpt lat="44.69062" lon="5.95362">
        <ele>1480</ele>
        <time>2019-06-04T07:26:02Z</time>
      </trkpt>
      <trkpt lat="44.69137" lon="5.95352">
        <ele>1491</ele>
        <time>2019-06-04T07:27:02Z</time>
      </trkpt>
      <trkpt lat="44.69266" lon="5.95293">
        <ele>1501</ele>
        <time>2019-06-04T07:28:51Z</time>
      </trkpt>
      <trkpt lat="44.69345" lon="5.95265">
        <ele>1503</ele>
        <time>2019-06-04T07:29:56Z</time>
      </trkpt>
      <trkpt lat="44.69549" lon="5.95334">
        <ele>1526</ele>
        <time>2019-06-04T07:32:44Z</time>
      </trkpt>
      <trkpt lat="44.69699" lon="5.95464">
        <ele>1525</ele>
        <time>2019-06-04T07:35:05Z</time>
      </trkpt>
      <trkpt lat="44.69703" lon="5.95597">
        <ele>1528</ele>
        <time>2019-06-04T07:36:21Z</time>
      </trkpt>
      <trkpt lat="44.69726" lon="5.95801">
        <ele>1521</ele>
        <time>2019-06-04T07:38:18Z</time>
      </trkpt>
      <trkpt lat="44.69748" lon="5.959">
        <ele>1510</ele>
        <time>2019-06-04T07:39:18Z</time>
      </trkpt>
      <trkpt lat="44.69766" lon="5.95724">
        <ele>1507</ele>
        <time>2019-06-04T07:40:59Z</time>
      </trkpt>
      <trkpt lat="44.69794" lon="5.95569">
        <ele>1506</ele>
        <time>2019-06-04T07:42:30Z</time>
      </trkpt>
      <trkpt lat="44.6987" lon="5.95436">
        <ele>1496</ele>
        <time>2019-06-04T07:44:07Z</time>
      </trkpt>
      <trkpt lat="44.69877" lon="5.95495">
        <ele>1500</ele>
        <time>2019-06-04T07:44:41Z</time>
      </trkpt>
      <trkpt lat="44.69953" lon="5.95334">
        <ele>1490</ele>
        <time>2019-06-04T07:46:31Z</time>
      </trkpt>
      <trkpt lat="44.7006" lon="5.95143">
        <ele>1491</ele>
        <time>2019-06-04T07:48:49Z</time>
      </trkpt>
      <trkpt lat="44.70103" lon="5.9511">
        <ele>1494</ele>
        <time>2019-06-04T07:49:29Z</time>
      </trkpt>
      <trkpt lat="44.70138" lon="5.95021">
        <ele>1487</ele>
        <time>2019-06-04T07:50:26Z</time>
      </trkpt>
      <trkpt lat="44.70185" lon="5.94965">
        <ele>1487</ele>
        <time>2019-06-04T07:51:16Z</time>
      </trkpt>
      <trkpt lat="44.70192" lon="5.94906">
        <ele>1478</ele>
        <time>2019-06-04T07:51:50Z</time>
      </trkpt>
      <trkpt lat="44.70285" lon="5.94807">
        <ele>1480</ele>
        <time>2019-06-04T07:53:23Z</time>
      </trkpt>
      <trkpt lat="44.70328" lon="5.94775">
        <ele>1487</ele>
        <time>2019-06-04T07:54:02Z</time>
      </trkpt>
      <trkpt lat="44.70356" lon="5.94519">
        <ele>1454</ele>
        <time>2019-06-04T07:56:29Z</time>
      </trkpt>
      <trkpt lat="44.70455" lon="5.94346">
        <ele>1448</ele>
        <time>2019-06-04T07:58:36Z</time>
      </trkpt>
      <trkpt lat="44.70474" lon="5.9412">
        <ele>1426</ele>
        <time>2019-06-04T08:00:45Z</time>
      </trkpt>
      <trkpt lat="44.70352" lon="5.94089">
        <ele>1408</ele>
        <time>2019-06-04T08:02:25Z</time>
      </trkpt>
      <trkpt lat="44.70189" lon="5.94061">
        <ele>1363</ele>
        <time>2019-06-04T08:04:36Z</time>
      </trkpt>
      <trkpt lat="44.70044" lon="5.94053">
        <ele>1336</ele>
        <time>2019-06-04T08:06:32Z</time>
      </trkpt>
      <trkpt lat="44.69955" lon="5.94068">
        <ele>1322</ele>
        <time>2019-06-04T08:07:44Z</time>
      </trkpt>
      <trkpt lat="44.69775" lon="5.93966">
        <ele>1310</ele>
        <time>2019-06-04T08:10:19Z</time>
      </trkpt>
      <trkpt lat="44.69708" lon="5.93913">
        <ele>1315</ele>
        <time>2019-06-04T08:11:21Z</time>
      </trkpt>
      <trkpt lat="44.69638" lon="5.93933">
        <ele>1314</ele>
        <time>2019-06-04T08:12:18Z</time>
      </trkpt>
      <trkpt lat="44.694" lon="5.94091">
        <ele>1282</ele>
        <time>2019-06-04T08:15:49Z</time>
      </trkpt>
      <trkpt lat="44.6948" lon="5.9391">
        <ele>1277</ele>
        <time>2019-06-04T08:17:50Z</time>
      </trkpt>
      <trkpt lat="44.69527" lon="5.93711">
        <ele>1274</ele>
        <time>2019-06-04T08:19:50Z</time>
      </trkpt>
      <trkpt lat="44.6963" lon="5.93512">
        <ele>1276</ele>
        <time>2019-06-04T08:22:10Z</time>
      </trkpt>
      <trkpt lat="44.6963" lon="5.93435">
        <ele>1286</ele>
        <time>2019-06-04T08:22:54Z</time>
      </trkpt>
      <trkpt lat="44.69681" lon="5.93318">
        <ele>1295</ele>
        <time>2019-06-04T08:24:12Z</time>
      </trkpt>
      <trkpt lat="44.69848" lon="5.93259">
        <ele>1294</ele>
        <time>2019-06-04T08:26:29Z</time>
      </trkpt>
      <trkpt lat="44.69911" lon="5.93088">
        <ele>1248</ele>
        <time>2019-06-04T08:28:19Z</time>
      </trkpt>
      <trkpt lat="44.70031" lon="5.93086">
        <ele>1249</ele>
        <time>2019-06-04T08:29:55Z</time>
      </trkpt>
      <trkpt lat="44.70037" lon="5.92952">
        <ele>1240</ele>
        <time>2019-06-04T08:31:12Z</time>
      </trkpt>
      <trkpt lat="44.70094" lon="5.92923">
        <ele>1233</ele>
        <time>2019-06-04T08:32:00Z</time>
      </trkpt>
      <trkpt lat="44.70115" lon="5.92856">
        <ele>1234</ele>
        <time>2019-06-04T08:32:42Z</time>
      </trkpt>
      <trkpt lat="44.70097" lon="5.92747">
        <ele>1249</ele>
        <time>2019-06-04T08:33:46Z</time>
      </trkpt>
      <trkpt lat="44.7012" lon="5.92699">
        <ele>1247</ele>
        <time>2019-06-04T08:34:18Z</time>
      </trkpt>
      <trkpt lat="44.70213" lon="5.92639">
        <ele>1235</ele>
        <time>2019-06-04T08:35:40Z</time>
      </trkpt>
      <trkpt lat="44.70265" lon="5.9257">
        <ele>1236</ele>
        <time>2019-06-04T08:36:38Z</time>
      </trkpt>
      <trkpt lat="44.7039" lon="5.92503">
        <ele>1236</ele>
        <time>2019-06-04T08:38:25Z</time>
      </trkpt>
      <trkpt lat="44.70431" lon="5.92548">
        <ele>1230</ele>
        <time>2019-06-04T08:39:06Z</time>
      </trkpt>
      <trkpt lat="44.70415" lon="5.9259">
        <ele>1227</ele>
        <time>2019-06-04T08:39:33Z</time>
      </trkpt>
      <trkpt lat="44.70364" lon="5.92677">
        <ele>1213</ele>
        <time>2019-06-04T08:40:38Z</time>
      </trkpt>
      <trkpt lat="44.70337" lon="5.92736">
        <ele>1206</ele>
        <time>2019-06-04T08:41:18Z</time>
      </trkpt>
      <trkpt lat="44.70335" lon="5.92823">
        <ele>1201</ele>
        <time>2019-06-04T08:42:07Z</time>
      </trkpt>
      <trkpt lat="44.70339" lon="5.92926">
        <ele>1202</ele>
        <time>2019-06-04T08:43:06Z</time>
      </trkpt>
      <trkpt lat="44.70429" lon="5.92972">
        <ele>1202</ele>
        <time>2019-06-04T08:44:22Z</time>
      </trkpt>
      <trkpt lat="44.70492" lon="5.92976">
        <ele>1199</ele>
        <time>2019-06-04T08:45:13Z</time>
      </trkpt>
      <trkpt lat="44.70548" lon="5.92971">
        <ele>1197</ele>
        <time>2019-06-04T08:45:58Z</time>
      </trkpt>
      <trkpt lat="44.70578" lon="5.93005">
        <ele>1198</ele>
        <time>2019-06-04T08:46:29Z</time>
      </trkpt>
      <trkpt lat="44.70619" lon="5.9303">
        <ele>1202</ele>
        <time>2019-06-04T08:47:05Z</time>
      </trkpt>
      <trkpt lat="44.70671" lon="5.9305">
        <ele>1203</ele>
        <time>2019-06-04T08:47:48Z</time>
      </trkpt>
      <trkpt lat="44.70728" lon="5.93045">
        <ele>1197</ele>
        <time>2019-06-04T08:48:33Z</time>
      </trkpt>
      <trkpt lat="44.70873" lon="5.93128">
        <ele>1194</ele>
        <time>2019-06-04T08:50:39Z</time>
      </trkpt>
      <trkpt lat="44.7095" lon="5.93157">
        <ele>1194</ele>
        <time>2019-06-04T08:51:43Z</time>
      </trkpt>
      <trkpt lat="44.71006" lon="5.93194">
        <ele>1201</ele>
        <time>2019-06-04T08:52:32Z</time>
      </trkpt>
      <trkpt lat="44.71028" lon="5.93115">
        <ele>1191</ele>
        <time>2019-06-04T08:53:20Z</time>
      </trkpt>
      <trkpt lat="44.71042" lon="5.93094">
        <ele>1190</ele>
        <time>2019-06-04T08:53:37Z</time>
      </trkpt>
      <trkpt lat="44.71039" lon="5.93037">
        <ele>1188</ele>
        <time>2019-06-04T08:54:09Z</time>
      </trkpt>
      <trkpt lat="44.71044" lon="5.9301">
        <ele>1187</ele>
        <time>2019-06-04T08:54:25Z</time>
      </trkpt>
      <trkpt lat="44.71043" lon="5.92983">
        <ele>1187</ele>
        <time>2019-06-04T08:54:41Z</time>
      </trkpt>
      <trkpt lat="44.71104" lon="5.92965">
        <ele>1188</ele>
        <time>2019-06-04T08:55:30Z</time>
      </trkpt>
      <trkpt lat="44.71149" lon="5.92955">
        <ele>1188</ele>
        <time>2019-06-04T08:56:07Z</time>
      </trkpt>
      <trkpt lat="44.71172" lon="5.92957">
        <ele>1189</ele>
        <time>2019-06-04T08:56:25Z</time>
      </trkpt>
      <trkpt lat="44.71201" lon="5.92954">
        <ele>1189</ele>
        <time>2019-06-04T08:56:49Z</time>
      </trkpt>
      <trkpt lat="44.71235" lon="5.92961">
        <ele>1191</ele>
        <time>2019-06-04T08:57:16Z</time>
      </trkpt>
      <trkpt lat="44.71265" lon="5.92947">
        <ele>1191</ele>
        <time>2019-06-04T08:57:41Z</time>
      </trkpt>
      <trkpt lat="44.713" lon="5.92958">
        <ele>1195</ele>
        <time>2019-06-04T08:58:10Z</time>
      </trkpt>
      <trkpt lat="44.71331" lon="5.92995">
        <ele>1199</ele>
        <time>2019-06-04T08:58:43Z</time>
      </trkpt>
      <trkpt lat="44.7135" lon="5.9303">
        <ele>1206</ele>
        <time>2019-06-04T08:59:08Z</time>
      </trkpt>
      <trkpt lat="44.71376" lon="5.93051">
        <ele>1212</ele>
        <time>2019-06-04T08:59:32Z</time>
      </trkpt>
      <trkpt lat="44.71382" lon="5.93026">
        <ele>1209</ele>
        <time>2019-06-04T08:59:47Z</time>
      </trkpt>
      <trkpt lat="44.714" lon="5.93004">
        <ele>1209</ele>
        <time>2019-06-04T09:00:06Z</time>
      </trkpt>
      <trkpt lat="44.71434" lon="5.92983">
        <ele>1212</ele>
        <time>2019-06-04T09:00:36Z</time>
      </trkpt>
      <trkpt lat="44.71476" lon="5.92947">
        <ele>1214</ele>
        <time>2019-06-04T09:01:15Z</time>
      </trkpt>
      <trkpt lat="44.71513" lon="5.92898">
        <ele>1216</ele>
        <time>2019-06-04T09:01:56Z</time>
      </trkpt>
      <trkpt lat="44.71529" lon="5.92893">
        <ele>1219</ele>
        <time>2019-06-04T09:02:09Z</time>
      </trkpt>
      <trkpt lat="44.71546" lon="5.92869">
        <ele>1220</ele>
        <time>2019-06-04T09:02:28Z</time>
      </trkpt>
      <trkpt lat="44.71581" lon="5.92849">
        <ele>1225</ele>
        <time>2019-06-04T09:02:58Z</time>
      </trkpt>
      <trkpt lat="44.71594" lon="5.92829">
        <ele>1225</ele>
        <time>2019-06-04T09:03:14Z</time>
      </trkpt>
      <trkpt lat="44.71617" lon="5.9282">
        <ele>1227</ele>
        <time>2019-06-04T09:03:33Z</time>
      </trkpt>
      <trkpt lat="44.71651" lon="5.92818">
        <ele>1231</ele>
        <time>2019-06-04T09:04:00Z</time>
      </trkpt>
      <trkpt lat="44.71732" lon="5.92748">
        <ele>1238</ele>
        <time>2019-06-04T09:05:16Z</time>
      </trkpt>
      <trkpt lat="44.71747" lon="5.92743">
        <ele>1242</ele>
        <time>2019-06-04T09:05:29Z</time>
      </trkpt>
      <trkpt lat="44.71785" lon="5.9267">
        <ele>1243</ele>
        <time>2019-06-04T09:06:20Z</time>
      </trkpt>
      <trkpt lat="44.71806" lon="5.9265">
        <ele>1243</ele>
        <time>2019-06-04T09:06:40Z</time>
      </trkpt>
      <trkpt lat="44.71878" lon="5.927">
        <ele>1260</ele>
        <time>2019-06-04T09:07:45Z</time>
      </trkpt>
      <trkpt lat="44.7191" lon="5.92706">
        <ele>1265</ele>
        <time>2019-06-04T09:08:11Z</time>
      </trkpt>
      <trkpt lat="44.71938" lon="5.92678">
        <ele>1268</ele>
        <time>2019-06-04T09:08:38Z</time>
      </trkpt>
      <trkpt lat="44.71969" lon="5.92667">
        <ele>1273</ele>
        <time>2019-06-04T09:09:04Z</time>
      </trkpt>
      <trkpt lat="44.72086" lon="5.92647">
        <ele>1291</ele>
        <time>2019-06-04T09:10:38Z</time>
      </trkpt>
      <trkpt lat="44.72162" lon="5.9256">
        <ele>1295</ele>
        <time>2019-06-04T09:11:56Z</time>
      </trkpt>
      <trkpt lat="44.7218" lon="5.92484">
        <ele>1295</ele>
        <time>2019-06-04T09:12:42Z</time>
      </trkpt>
      <trkpt lat="44.72189" lon="5.92427">
        <ele>1298</ele>
        <time>2019-06-04T09:13:15Z</time>
      </trkpt>
      <trkpt lat="44.72113" lon="5.92259">
        <ele>1278</ele>
        <time>2019-06-04T09:15:09Z</time>
      </trkpt>
      <trkpt lat="44.72155" lon="5.9212">
        <ele>1248</ele>
        <time>2019-06-04T09:16:34Z</time>
      </trkpt>
      <trkpt lat="44.72193" lon="5.92018">
        <ele>1237</ele>
        <time>2019-06-04T09:17:40Z</time>
      </trkpt>
      <trkpt lat="44.72198" lon="5.91806">
        <ele>1182</ele>
        <time>2019-06-04T09:19:41Z</time>
      </trkpt>
      <trkpt lat="44.72292" lon="5.91747">
        <ele>1206</ele>
        <time>2019-06-04T09:21:03Z</time>
      </trkpt>
      <trkpt lat="44.72321" lon="5.91564">
        <ele>1146</ele>
        <time>2019-06-04T09:22:50Z</time>
      </trkpt>
      <trkpt lat="44.72405" lon="5.91559">
        <ele>1149</ele>
        <time>2019-06-04T09:23:57Z</time>
      </trkpt>
      <trkpt lat="44.72454" lon="5.91597">
        <ele>1158</ele>
        <time>2019-06-04T09:24:42Z</time>
      </trkpt>
      <trkpt lat="44.72535" lon="5.91638">
        <ele>1173</ele>
        <time>2019-06-04T09:25:51Z</time>
      </trkpt>
      <trkpt lat="44.72601" lon="5.91701">
        <ele>1192</ele>
        <time>2019-06-04T09:26:55Z</time>
      </trkpt>
      <trkpt lat="44.72624" lon="5.9162">
        <ele>1179</ele>
        <time>2019-06-04T09:27:44Z</time>
      </trkpt>
      <trkpt lat="44.72626" lon="5.91541">
        <ele>1162</ele>
        <time>2019-06-04T09:28:29Z</time>
      </trkpt>
      <trkpt lat="44.72686" lon="5.91505">
        <ele>1154</ele>
        <time>2019-06-04T09:29:21Z</time>
      </trkpt>
      <trkpt lat="44.72737" lon="5.91505">
        <ele>1153</ele>
        <time>2019-06-04T09:30:02Z</time>
      </trkpt>
      <trkpt lat="44.72695" lon="5.91457">
        <ele>1139</ele>
        <time>2019-06-04T09:30:46Z</time>
      </trkpt>
      <trkpt lat="44.72619" lon="5.91426">
        <ele>1130</ele>
        <time>2019-06-04T09:31:49Z</time>
      </trkpt>
      <trkpt lat="44.72722" lon="5.91344">
        <ele>1112</ele>
        <time>2019-06-04T09:33:24Z</time>
      </trkpt>
      <trkpt lat="44.72806" lon="5.91127">
        <ele>1080</ele>
        <time>2019-06-04T09:35:44Z</time>
      </trkpt>
      <trkpt lat="44.72746" lon="5.90992">
        <ele>1067</ele>
        <time>2019-06-04T09:37:15Z</time>
      </trkpt>
      <trkpt lat="44.72773" lon="5.90864">
        <ele>1067</ele>
        <time>2019-06-04T09:38:31Z</time>
      </trkpt>
      <trkpt lat="44.72751" lon="5.9087">
        <ele>1062</ele>
        <time>2019-06-04T09:38:49Z</time>
      </trkpt>
      <trkpt lat="44.728" lon="5.90762">
        <ele>1066</ele>
        <time>2019-06-04T09:40:02Z</time>
      </trkpt>
      <trkpt lat="44.72865" lon="5.90671">
        <ele>1065</ele>
        <time>2019-06-04T09:41:15Z</time>
      </trkpt>
      <trkpt lat="44.72938" lon="5.905">
        <ele>1061</ele>
        <time>2019-06-04T09:43:09Z</time>
      </trkpt>
      <trkpt lat="44.73054" lon="5.90308">
        <ele>1053</ele>
        <time>2019-06-04T09:45:32Z</time>
      </trkpt>
      <trkpt lat="44.73108" lon="5.90147">
        <ele>1047</ele>
        <time>2019-06-04T09:47:13Z</time>
      </trkpt>
      <trkpt lat="44.73101" lon="5.90056">
        <ele>1041</ele>
        <time>2019-06-04T09:48:05Z</time>
      </trkpt>
      <trkpt lat="44.73126" lon="5.89989">
        <ele>1038</ele>
        <time>2019-06-04T09:48:48Z</time>
      </trkpt>
      <trkpt lat="44.73299" lon="5.89811">
        <ele>1033</ele>
        <time>2019-06-04T09:51:40Z</time>
      </trkpt>
      <trkpt lat="44.73413" lon="5.89752">
        <ele>1038</ele>
        <time>2019-06-04T09:53:17Z</time>
      </trkpt>
      <trkpt lat="44.73462" lon="5.89651">
        <ele>1034</ele>
        <time>2019-06-04T09:54:27Z</time>
      </trkpt>
      <trkpt lat="44.73503" lon="5.89575">
        <ele>1031</ele>
        <time>2019-06-04T09:55:21Z</time>
      </trkpt>
      <trkpt lat="44.73519" lon="5.89535">
        <ele>1032</ele>
        <time>2019-06-04T09:55:47Z</time>
      </trkpt>
      <trkpt lat="44.73507" lon="5.89506">
        <ele>1032</ele>
        <time>2019-06-04T09:56:06Z</time>
      </trkpt>
      <trkpt lat="44.73489" lon="5.89516">
        <ele>1033</ele>
        <time>2019-06-04T09:56:22Z</time>
      </trkpt>
      <trkpt lat="44.73475" lon="5.89514">
        <ele>1035</ele>
        <time>2019-06-04T09:56:33Z</time>
      </trkpt>
      <trkpt lat="44.73481" lon="5.89486">
        <ele>1037</ele>
        <time>2019-06-04T09:56:50Z</time>
      </trkpt>
      <trkpt lat="44.73462" lon="5.89484">
        <ele>1040</ele>
        <time>2019-06-04T09:57:05Z</time>
      </trkpt>
    </trkseg>
  </trk>
</gpx>